<?xml version="1.0" encoding="UTF-8" standalone="no" ?>
<gpx xmlns="http://www.topografix.com/GPX/1/1" xmlns:xsi="http://www.w3.org/2001/XMLSchema-instance" xsi:schemaLocation="http://www.topografix.com/GPX/1/1 http://www.topografix.com/GPX/1/1/gpx.xsd" version="1.1" creator="VisuGPX - https://www.visugpx.com">
  <metadata>
    <name>Rando  dans le massif de l'Ormont </name>
    <desc><![CDATA[Merci à Michel D. pour e&s de St Dié]]></desc>
  </metadata>
  <trk>
    <name><![CDATA[2018-02-08 17:28:46]]></name>
    <trkseg>
      <trkpt lat="48.29821" lon="7.00424">
        <ele>553.38</ele>
        <time>2018-02-08T12:40:31Z</time>
      </trkpt>
      <trkpt lat="48.29825" lon="7.00415">
        <ele>546.65</ele>
        <time>2018-02-08T12:40:54Z</time>
      </trkpt>
      <trkpt lat="48.29827" lon="7.00412">
        <ele>545.2</ele>
        <time>2018-02-08T12:41:11Z</time>
      </trkpt>
      <trkpt lat="48.29826" lon="7.00421">
        <ele>537.99</ele>
        <time>2018-02-08T12:41:35Z</time>
      </trkpt>
      <trkpt lat="48.2982" lon="7.00421">
        <ele>525.98</ele>
        <time>2018-02-08T12:41:55Z</time>
      </trkpt>
      <trkpt lat="48.29803" lon="7.00439">
        <ele>521.65</ele>
        <time>2018-02-08T12:42:22Z</time>
      </trkpt>
      <trkpt lat="48.29803" lon="7.00436">
        <ele>517.33</ele>
        <time>2018-02-08T12:42:50Z</time>
      </trkpt>
      <trkpt lat="48.29798" lon="7.00439">
        <ele>514.44</ele>
        <time>2018-02-08T12:43:21Z</time>
      </trkpt>
      <trkpt lat="48.29799" lon="7.00439">
        <ele>511.56</ele>
        <time>2018-02-08T12:43:53Z</time>
      </trkpt>
      <trkpt lat="48.29796" lon="7.00439">
        <ele>512.52</ele>
        <time>2018-02-08T12:44:13Z</time>
      </trkpt>
      <trkpt lat="48.29796" lon="7.00437">
        <ele>514.92</ele>
        <time>2018-02-08T12:44:34Z</time>
      </trkpt>
      <trkpt lat="48.29802" lon="7.00429">
        <ele>515.4</ele>
        <time>2018-02-08T12:44:45Z</time>
      </trkpt>
      <trkpt lat="48.29807" lon="7.0042">
        <ele>515.4</ele>
        <time>2018-02-08T12:45:01Z</time>
      </trkpt>
      <trkpt lat="48.29818" lon="7.00417">
        <ele>515.4</ele>
        <time>2018-02-08T12:45:15Z</time>
      </trkpt>
      <trkpt lat="48.29819" lon="7.00419">
        <ele>514.92</ele>
        <time>2018-02-08T12:45:27Z</time>
      </trkpt>
      <trkpt lat="48.29823" lon="7.00415">
        <ele>515.4</ele>
        <time>2018-02-08T12:45:42Z</time>
      </trkpt>
      <trkpt lat="48.2982" lon="7.00411">
        <ele>515.88</ele>
        <time>2018-02-08T12:45:57Z</time>
      </trkpt>
      <trkpt lat="48.29823" lon="7.00409">
        <ele>517.33</ele>
        <time>2018-02-08T12:46:14Z</time>
      </trkpt>
      <trkpt lat="48.29824" lon="7.00407">
        <ele>517.33</ele>
        <time>2018-02-08T12:46:34Z</time>
      </trkpt>
      <trkpt lat="48.29822" lon="7.00405">
        <ele>517.33</ele>
        <time>2018-02-08T12:46:50Z</time>
      </trkpt>
      <trkpt lat="48.2982" lon="7.00412">
        <ele>517.81</ele>
        <time>2018-02-08T12:47:14Z</time>
      </trkpt>
      <trkpt lat="48.29819" lon="7.00408">
        <ele>518.29</ele>
        <time>2018-02-08T12:47:34Z</time>
      </trkpt>
      <trkpt lat="48.29816" lon="7.00411">
        <ele>522.13</ele>
        <time>2018-02-08T12:47:57Z</time>
      </trkpt>
      <trkpt lat="48.29818" lon="7.0041">
        <ele>522.13</ele>
        <time>2018-02-08T12:48:19Z</time>
      </trkpt>
      <trkpt lat="48.29816" lon="7.00403">
        <ele>526.94</ele>
        <time>2018-02-08T12:48:40Z</time>
      </trkpt>
      <trkpt lat="48.29815" lon="7.00409">
        <ele>525.5</ele>
        <time>2018-02-08T12:48:58Z</time>
      </trkpt>
      <trkpt lat="48.29817" lon="7.0041">
        <ele>526.46</ele>
        <time>2018-02-08T12:49:15Z</time>
      </trkpt>
      <trkpt lat="48.29821" lon="7.00409">
        <ele>526.46</ele>
        <time>2018-02-08T12:49:33Z</time>
      </trkpt>
      <trkpt lat="48.2983" lon="7.00406">
        <ele>524.54</ele>
        <time>2018-02-08T12:49:47Z</time>
      </trkpt>
      <trkpt lat="48.29849" lon="7.00392">
        <ele>523.58</ele>
        <time>2018-02-08T12:50:02Z</time>
      </trkpt>
      <trkpt lat="48.29853" lon="7.00386">
        <ele>522.61</ele>
        <time>2018-02-08T12:50:09Z</time>
      </trkpt>
      <trkpt lat="48.29858" lon="7.00366">
        <ele>519.73</ele>
        <time>2018-02-08T12:50:23Z</time>
      </trkpt>
      <trkpt lat="48.29859" lon="7.00362">
        <ele>518.77</ele>
        <time>2018-02-08T12:50:26Z</time>
      </trkpt>
      <trkpt lat="48.29861" lon="7.00347">
        <ele>519.73</ele>
        <time>2018-02-08T12:50:37Z</time>
      </trkpt>
      <trkpt lat="48.29861" lon="7.00326">
        <ele>521.17</ele>
        <time>2018-02-08T12:50:52Z</time>
      </trkpt>
      <trkpt lat="48.29863" lon="7.00312">
        <ele>517.33</ele>
        <time>2018-02-08T12:51:06Z</time>
      </trkpt>
      <trkpt lat="48.29869" lon="7.00296">
        <ele>513.48</ele>
        <time>2018-02-08T12:51:20Z</time>
      </trkpt>
      <trkpt lat="48.29873" lon="7.00286">
        <ele>513</ele>
        <time>2018-02-08T12:51:29Z</time>
      </trkpt>
      <trkpt lat="48.29883" lon="7.0027">
        <ele>513.48</ele>
        <time>2018-02-08T12:51:43Z</time>
      </trkpt>
      <trkpt lat="48.29891" lon="7.00256">
        <ele>514.44</ele>
        <time>2018-02-08T12:51:56Z</time>
      </trkpt>
      <trkpt lat="48.29899" lon="7.00245">
        <ele>514.92</ele>
        <time>2018-02-08T12:52:07Z</time>
      </trkpt>
      <trkpt lat="48.29907" lon="7.00237">
        <ele>515.4</ele>
        <time>2018-02-08T12:52:15Z</time>
      </trkpt>
      <trkpt lat="48.29915" lon="7.0023">
        <ele>517.33</ele>
        <time>2018-02-08T12:52:27Z</time>
      </trkpt>
      <trkpt lat="48.29924" lon="7.00224">
        <ele>517.33</ele>
        <time>2018-02-08T12:52:40Z</time>
      </trkpt>
      <trkpt lat="48.29936" lon="7.00212">
        <ele>518.29</ele>
        <time>2018-02-08T12:52:55Z</time>
      </trkpt>
      <trkpt lat="48.29949" lon="7.00197">
        <ele>519.25</ele>
        <time>2018-02-08T12:53:07Z</time>
      </trkpt>
      <trkpt lat="48.29948" lon="7.00182">
        <ele>521.65</ele>
        <time>2018-02-08T12:53:20Z</time>
      </trkpt>
      <trkpt lat="48.29941" lon="7.00169">
        <ele>522.13</ele>
        <time>2018-02-08T12:53:35Z</time>
      </trkpt>
      <trkpt lat="48.29928" lon="7.00157">
        <ele>526.46</ele>
        <time>2018-02-08T12:53:48Z</time>
      </trkpt>
      <trkpt lat="48.29921" lon="7.00144">
        <ele>528.38</ele>
        <time>2018-02-08T12:54:02Z</time>
      </trkpt>
      <trkpt lat="48.29912" lon="7.00136">
        <ele>527.9</ele>
        <time>2018-02-08T12:54:15Z</time>
      </trkpt>
      <trkpt lat="48.29898" lon="7.00117">
        <ele>529.82</ele>
        <time>2018-02-08T12:54:31Z</time>
      </trkpt>
      <trkpt lat="48.2989" lon="7.0009">
        <ele>532.23</ele>
        <time>2018-02-08T12:54:47Z</time>
      </trkpt>
      <trkpt lat="48.29889" lon="7.00089">
        <ele>532.23</ele>
        <time>2018-02-08T12:54:48Z</time>
      </trkpt>
      <trkpt lat="48.29881" lon="7.00068">
        <ele>537.99</ele>
        <time>2018-02-08T12:55:04Z</time>
      </trkpt>
      <trkpt lat="48.2988" lon="7.00041">
        <ele>541.36</ele>
        <time>2018-02-08T12:55:18Z</time>
      </trkpt>
      <trkpt lat="48.29881" lon="7.00019">
        <ele>542.32</ele>
        <time>2018-02-08T12:55:31Z</time>
      </trkpt>
      <trkpt lat="48.29882" lon="7.0001">
        <ele>541.84</ele>
        <time>2018-02-08T12:55:36Z</time>
      </trkpt>
      <trkpt lat="48.29886" lon="6.99991">
        <ele>542.8</ele>
        <time>2018-02-08T12:55:48Z</time>
      </trkpt>
      <trkpt lat="48.29889" lon="6.99972">
        <ele>542.8</ele>
        <time>2018-02-08T12:56:00Z</time>
      </trkpt>
      <trkpt lat="48.29892" lon="6.99956">
        <ele>543.28</ele>
        <time>2018-02-08T12:56:10Z</time>
      </trkpt>
      <trkpt lat="48.29891" lon="6.99934">
        <ele>550.49</ele>
        <time>2018-02-08T12:56:23Z</time>
      </trkpt>
      <trkpt lat="48.29892" lon="6.99922">
        <ele>550.01</ele>
        <time>2018-02-08T12:56:36Z</time>
      </trkpt>
      <trkpt lat="48.29889" lon="6.99912">
        <ele>549.53</ele>
        <time>2018-02-08T12:56:49Z</time>
      </trkpt>
      <trkpt lat="48.29889" lon="6.99911">
        <ele>549.53</ele>
        <time>2018-02-08T12:56:50Z</time>
      </trkpt>
      <trkpt lat="48.2988" lon="6.99893">
        <ele>551.45</ele>
        <time>2018-02-08T12:57:04Z</time>
      </trkpt>
      <trkpt lat="48.29877" lon="6.99892">
        <ele>551.45</ele>
        <time>2018-02-08T12:57:07Z</time>
      </trkpt>
      <trkpt lat="48.29873" lon="6.99891">
        <ele>551.93</ele>
        <time>2018-02-08T12:57:11Z</time>
      </trkpt>
      <trkpt lat="48.2987" lon="6.99889">
        <ele>552.41</ele>
        <time>2018-02-08T12:57:14Z</time>
      </trkpt>
      <trkpt lat="48.29856" lon="6.99882">
        <ele>553.86</ele>
        <time>2018-02-08T12:57:29Z</time>
      </trkpt>
      <trkpt lat="48.29852" lon="6.99863">
        <ele>553.38</ele>
        <time>2018-02-08T12:57:40Z</time>
      </trkpt>
      <trkpt lat="48.29849" lon="6.99848">
        <ele>556.26</ele>
        <time>2018-02-08T12:57:55Z</time>
      </trkpt>
      <trkpt lat="48.29846" lon="6.99845">
        <ele>556.74</ele>
        <time>2018-02-08T12:58:10Z</time>
      </trkpt>
      <trkpt lat="48.2985" lon="6.99843">
        <ele>555.3</ele>
        <time>2018-02-08T12:58:37Z</time>
      </trkpt>
      <trkpt lat="48.29841" lon="6.99828">
        <ele>559.62</ele>
        <time>2018-02-08T12:58:53Z</time>
      </trkpt>
      <trkpt lat="48.29837" lon="6.9981">
        <ele>561.55</ele>
        <time>2018-02-08T12:59:07Z</time>
      </trkpt>
      <trkpt lat="48.29833" lon="6.9979">
        <ele>560.59</ele>
        <time>2018-02-08T12:59:21Z</time>
      </trkpt>
      <trkpt lat="48.29831" lon="6.99779">
        <ele>560.11</ele>
        <time>2018-02-08T12:59:27Z</time>
      </trkpt>
      <trkpt lat="48.29827" lon="6.99759">
        <ele>557.7</ele>
        <time>2018-02-08T12:59:41Z</time>
      </trkpt>
      <trkpt lat="48.29824" lon="6.99734">
        <ele>558.18</ele>
        <time>2018-02-08T12:59:57Z</time>
      </trkpt>
      <trkpt lat="48.29824" lon="6.99727">
        <ele>559.14</ele>
        <time>2018-02-08T13:00:02Z</time>
      </trkpt>
      <trkpt lat="48.29825" lon="6.99708">
        <ele>557.7</ele>
        <time>2018-02-08T13:00:15Z</time>
      </trkpt>
      <trkpt lat="48.29823" lon="6.99678">
        <ele>561.55</ele>
        <time>2018-02-08T13:00:28Z</time>
      </trkpt>
      <trkpt lat="48.29824" lon="6.9966">
        <ele>564.91</ele>
        <time>2018-02-08T13:00:39Z</time>
      </trkpt>
      <trkpt lat="48.29827" lon="6.99648">
        <ele>564.43</ele>
        <time>2018-02-08T13:00:47Z</time>
      </trkpt>
      <trkpt lat="48.29829" lon="6.99627">
        <ele>566.83</ele>
        <time>2018-02-08T13:01:00Z</time>
      </trkpt>
      <trkpt lat="48.2983" lon="6.99602">
        <ele>569.24</ele>
        <time>2018-02-08T13:01:15Z</time>
      </trkpt>
      <trkpt lat="48.29832" lon="6.99582">
        <ele>571.16</ele>
        <time>2018-02-08T13:01:27Z</time>
      </trkpt>
      <trkpt lat="48.29836" lon="6.99564">
        <ele>574.53</ele>
        <time>2018-02-08T13:01:41Z</time>
      </trkpt>
      <trkpt lat="48.29842" lon="6.99548">
        <ele>571.64</ele>
        <time>2018-02-08T13:01:55Z</time>
      </trkpt>
      <trkpt lat="48.29847" lon="6.99526">
        <ele>570.68</ele>
        <time>2018-02-08T13:02:11Z</time>
      </trkpt>
      <trkpt lat="48.29852" lon="6.99511">
        <ele>571.64</ele>
        <time>2018-02-08T13:02:24Z</time>
      </trkpt>
      <trkpt lat="48.29857" lon="6.99493">
        <ele>570.68</ele>
        <time>2018-02-08T13:02:39Z</time>
      </trkpt>
      <trkpt lat="48.29858" lon="6.99465">
        <ele>580.77</ele>
        <time>2018-02-08T13:02:51Z</time>
      </trkpt>
      <trkpt lat="48.29861" lon="6.9944">
        <ele>584.62</ele>
        <time>2018-02-08T13:03:07Z</time>
      </trkpt>
      <trkpt lat="48.29865" lon="6.99419">
        <ele>584.62</ele>
        <time>2018-02-08T13:03:22Z</time>
      </trkpt>
      <trkpt lat="48.29866" lon="6.99417">
        <ele>584.62</ele>
        <time>2018-02-08T13:03:24Z</time>
      </trkpt>
      <trkpt lat="48.29873" lon="6.99402">
        <ele>584.14</ele>
        <time>2018-02-08T13:03:37Z</time>
      </trkpt>
      <trkpt lat="48.29879" lon="6.99385">
        <ele>584.14</ele>
        <time>2018-02-08T13:03:51Z</time>
      </trkpt>
      <trkpt lat="48.29882" lon="6.99376">
        <ele>584.14</ele>
        <time>2018-02-08T13:03:58Z</time>
      </trkpt>
      <trkpt lat="48.29888" lon="6.99358">
        <ele>586.06</ele>
        <time>2018-02-08T13:04:12Z</time>
      </trkpt>
      <trkpt lat="48.29891" lon="6.99333">
        <ele>590.39</ele>
        <time>2018-02-08T13:04:26Z</time>
      </trkpt>
      <trkpt lat="48.29897" lon="6.99315">
        <ele>593.75</ele>
        <time>2018-02-08T13:04:40Z</time>
      </trkpt>
      <trkpt lat="48.29898" lon="6.99293">
        <ele>592.31</ele>
        <time>2018-02-08T13:04:53Z</time>
      </trkpt>
      <trkpt lat="48.29901" lon="6.99275">
        <ele>588.95</ele>
        <time>2018-02-08T13:05:05Z</time>
      </trkpt>
      <trkpt lat="48.29904" lon="6.9926">
        <ele>589.91</ele>
        <time>2018-02-08T13:05:16Z</time>
      </trkpt>
      <trkpt lat="48.29908" lon="6.99239">
        <ele>588.95</ele>
        <time>2018-02-08T13:05:32Z</time>
      </trkpt>
      <trkpt lat="48.29912" lon="6.99223">
        <ele>588.46</ele>
        <time>2018-02-08T13:05:45Z</time>
      </trkpt>
      <trkpt lat="48.29917" lon="6.99203">
        <ele>589.43</ele>
        <time>2018-02-08T13:05:57Z</time>
      </trkpt>
      <trkpt lat="48.29918" lon="6.99184">
        <ele>589.91</ele>
        <time>2018-02-08T13:06:10Z</time>
      </trkpt>
      <trkpt lat="48.29918" lon="6.99182">
        <ele>589.91</ele>
        <time>2018-02-08T13:06:11Z</time>
      </trkpt>
      <trkpt lat="48.2992" lon="6.99162">
        <ele>590.87</ele>
        <time>2018-02-08T13:06:24Z</time>
      </trkpt>
      <trkpt lat="48.29923" lon="6.99151">
        <ele>591.83</ele>
        <time>2018-02-08T13:06:32Z</time>
      </trkpt>
      <trkpt lat="48.29928" lon="6.99135">
        <ele>592.79</ele>
        <time>2018-02-08T13:06:45Z</time>
      </trkpt>
      <trkpt lat="48.29933" lon="6.99113">
        <ele>593.27</ele>
        <time>2018-02-08T13:06:59Z</time>
      </trkpt>
      <trkpt lat="48.29934" lon="6.99084">
        <ele>598.56</ele>
        <time>2018-02-08T13:07:14Z</time>
      </trkpt>
      <trkpt lat="48.29937" lon="6.99064">
        <ele>600.96</ele>
        <time>2018-02-08T13:07:29Z</time>
      </trkpt>
      <trkpt lat="48.29939" lon="6.99054">
        <ele>601.44</ele>
        <time>2018-02-08T13:07:36Z</time>
      </trkpt>
      <trkpt lat="48.29941" lon="6.99033">
        <ele>602.4</ele>
        <time>2018-02-08T13:07:51Z</time>
      </trkpt>
      <trkpt lat="48.29945" lon="6.99017">
        <ele>601.92</ele>
        <time>2018-02-08T13:08:04Z</time>
      </trkpt>
      <trkpt lat="48.29946" lon="6.99013">
        <ele>602.4</ele>
        <time>2018-02-08T13:08:07Z</time>
      </trkpt>
      <trkpt lat="48.29949" lon="6.99004">
        <ele>603.85</ele>
        <time>2018-02-08T13:08:14Z</time>
      </trkpt>
      <trkpt lat="48.29951" lon="6.98998">
        <ele>604.81</ele>
        <time>2018-02-08T13:08:19Z</time>
      </trkpt>
      <trkpt lat="48.29956" lon="6.98983">
        <ele>606.73</ele>
        <time>2018-02-08T13:08:31Z</time>
      </trkpt>
      <trkpt lat="48.29959" lon="6.98966">
        <ele>607.21</ele>
        <time>2018-02-08T13:08:42Z</time>
      </trkpt>
      <trkpt lat="48.2996" lon="6.98959">
        <ele>606.25</ele>
        <time>2018-02-08T13:08:47Z</time>
      </trkpt>
      <trkpt lat="48.29964" lon="6.98937">
        <ele>605.29</ele>
        <time>2018-02-08T13:09:02Z</time>
      </trkpt>
      <trkpt lat="48.29971" lon="6.98919">
        <ele>605.77</ele>
        <time>2018-02-08T13:09:17Z</time>
      </trkpt>
      <trkpt lat="48.29979" lon="6.98905">
        <ele>606.73</ele>
        <time>2018-02-08T13:09:29Z</time>
      </trkpt>
      <trkpt lat="48.29981" lon="6.98901">
        <ele>607.69</ele>
        <time>2018-02-08T13:09:32Z</time>
      </trkpt>
      <trkpt lat="48.29983" lon="6.98899">
        <ele>608.17</ele>
        <time>2018-02-08T13:09:34Z</time>
      </trkpt>
      <trkpt lat="48.2999" lon="6.98887">
        <ele>608.65</ele>
        <time>2018-02-08T13:09:46Z</time>
      </trkpt>
      <trkpt lat="48.29996" lon="6.98873">
        <ele>611.06</ele>
        <time>2018-02-08T13:09:57Z</time>
      </trkpt>
      <trkpt lat="48.30001" lon="6.98857">
        <ele>612.98</ele>
        <time>2018-02-08T13:10:09Z</time>
      </trkpt>
      <trkpt lat="48.30007" lon="6.98841">
        <ele>613.94</ele>
        <time>2018-02-08T13:10:22Z</time>
      </trkpt>
      <trkpt lat="48.30014" lon="6.98831">
        <ele>614.42</ele>
        <time>2018-02-08T13:10:32Z</time>
      </trkpt>
      <trkpt lat="48.30022" lon="6.98818">
        <ele>615.86</ele>
        <time>2018-02-08T13:10:45Z</time>
      </trkpt>
      <trkpt lat="48.30025" lon="6.98814">
        <ele>615.86</ele>
        <time>2018-02-08T13:10:49Z</time>
      </trkpt>
      <trkpt lat="48.30027" lon="6.98813">
        <ele>615.86</ele>
        <time>2018-02-08T13:10:51Z</time>
      </trkpt>
      <trkpt lat="48.30028" lon="6.98811">
        <ele>615.38</ele>
        <time>2018-02-08T13:10:53Z</time>
      </trkpt>
      <trkpt lat="48.30032" lon="6.98806">
        <ele>615.38</ele>
        <time>2018-02-08T13:10:58Z</time>
      </trkpt>
      <trkpt lat="48.30041" lon="6.98794">
        <ele>614.42</ele>
        <time>2018-02-08T13:11:10Z</time>
      </trkpt>
      <trkpt lat="48.30042" lon="6.98792">
        <ele>613.94</ele>
        <time>2018-02-08T13:11:12Z</time>
      </trkpt>
      <trkpt lat="48.30044" lon="6.98791">
        <ele>613.94</ele>
        <time>2018-02-08T13:11:14Z</time>
      </trkpt>
      <trkpt lat="48.30049" lon="6.98778">
        <ele>617.78</ele>
        <time>2018-02-08T13:11:25Z</time>
      </trkpt>
      <trkpt lat="48.30054" lon="6.98762">
        <ele>624.51</ele>
        <time>2018-02-08T13:11:37Z</time>
      </trkpt>
      <trkpt lat="48.3006" lon="6.98749">
        <ele>629.32</ele>
        <time>2018-02-08T13:11:48Z</time>
      </trkpt>
      <trkpt lat="48.30065" lon="6.98734">
        <ele>632.68</ele>
        <time>2018-02-08T13:11:59Z</time>
      </trkpt>
      <trkpt lat="48.30074" lon="6.9872">
        <ele>631.24</ele>
        <time>2018-02-08T13:12:11Z</time>
      </trkpt>
      <trkpt lat="48.30078" lon="6.98714">
        <ele>630.28</ele>
        <time>2018-02-08T13:12:17Z</time>
      </trkpt>
      <trkpt lat="48.30083" lon="6.987">
        <ele>629.8</ele>
        <time>2018-02-08T13:12:28Z</time>
      </trkpt>
      <trkpt lat="48.30088" lon="6.98687">
        <ele>630.28</ele>
        <time>2018-02-08T13:12:40Z</time>
      </trkpt>
      <trkpt lat="48.3009" lon="6.98676">
        <ele>630.28</ele>
        <time>2018-02-08T13:12:47Z</time>
      </trkpt>
      <trkpt lat="48.30096" lon="6.98659">
        <ele>629.8</ele>
        <time>2018-02-08T13:13:00Z</time>
      </trkpt>
      <trkpt lat="48.30102" lon="6.98644">
        <ele>631.24</ele>
        <time>2018-02-08T13:13:13Z</time>
      </trkpt>
      <trkpt lat="48.30103" lon="6.98641">
        <ele>631.24</ele>
        <time>2018-02-08T13:13:16Z</time>
      </trkpt>
      <trkpt lat="48.30105" lon="6.98627">
        <ele>633.65</ele>
        <time>2018-02-08T13:13:31Z</time>
      </trkpt>
      <trkpt lat="48.30105" lon="6.98625">
        <ele>633.65</ele>
        <time>2018-02-08T13:13:43Z</time>
      </trkpt>
      <trkpt lat="48.30104" lon="6.98627">
        <ele>632.68</ele>
        <time>2018-02-08T13:14:04Z</time>
      </trkpt>
      <trkpt lat="48.30104" lon="6.98624">
        <ele>626.44</ele>
        <time>2018-02-08T13:14:32Z</time>
      </trkpt>
      <trkpt lat="48.30108" lon="6.98622">
        <ele>629.8</ele>
        <time>2018-02-08T13:15:04Z</time>
      </trkpt>
      <trkpt lat="48.30109" lon="6.9862">
        <ele>631.72</ele>
        <time>2018-02-08T13:15:13Z</time>
      </trkpt>
      <trkpt lat="48.30107" lon="6.9862">
        <ele>633.65</ele>
        <time>2018-02-08T13:15:25Z</time>
      </trkpt>
      <trkpt lat="48.30108" lon="6.98612">
        <ele>637.49</ele>
        <time>2018-02-08T13:15:56Z</time>
      </trkpt>
      <trkpt lat="48.30111" lon="6.98603">
        <ele>636.53</ele>
        <time>2018-02-08T13:16:03Z</time>
      </trkpt>
      <trkpt lat="48.30116" lon="6.98582">
        <ele>634.13</ele>
        <time>2018-02-08T13:16:16Z</time>
      </trkpt>
      <trkpt lat="48.30116" lon="6.98577">
        <ele>634.13</ele>
        <time>2018-02-08T13:16:19Z</time>
      </trkpt>
      <trkpt lat="48.30116" lon="6.98558">
        <ele>633.17</ele>
        <time>2018-02-08T13:16:31Z</time>
      </trkpt>
      <trkpt lat="48.30117" lon="6.98537">
        <ele>630.76</ele>
        <time>2018-02-08T13:16:44Z</time>
      </trkpt>
      <trkpt lat="48.30118" lon="6.9851">
        <ele>631.72</ele>
        <time>2018-02-08T13:17:00Z</time>
      </trkpt>
      <trkpt lat="48.30118" lon="6.98483">
        <ele>630.28</ele>
        <time>2018-02-08T13:17:14Z</time>
      </trkpt>
      <trkpt lat="48.30118" lon="6.98475">
        <ele>629.32</ele>
        <time>2018-02-08T13:17:19Z</time>
      </trkpt>
      <trkpt lat="48.30118" lon="6.9846">
        <ele>629.32</ele>
        <time>2018-02-08T13:17:28Z</time>
      </trkpt>
      <trkpt lat="48.30118" lon="6.98435">
        <ele>629.32</ele>
        <time>2018-02-08T13:17:42Z</time>
      </trkpt>
      <trkpt lat="48.30119" lon="6.98412">
        <ele>628.84</ele>
        <time>2018-02-08T13:17:56Z</time>
      </trkpt>
      <trkpt lat="48.30121" lon="6.98386">
        <ele>629.8</ele>
        <time>2018-02-08T13:18:11Z</time>
      </trkpt>
      <trkpt lat="48.30123" lon="6.98358">
        <ele>631.72</ele>
        <time>2018-02-08T13:18:26Z</time>
      </trkpt>
      <trkpt lat="48.30128" lon="6.98333">
        <ele>632.68</ele>
        <time>2018-02-08T13:18:41Z</time>
      </trkpt>
      <trkpt lat="48.30133" lon="6.98316">
        <ele>632.2</ele>
        <time>2018-02-08T13:18:53Z</time>
      </trkpt>
      <trkpt lat="48.3014" lon="6.98294">
        <ele>629.32</ele>
        <time>2018-02-08T13:19:06Z</time>
      </trkpt>
      <trkpt lat="48.30147" lon="6.98276">
        <ele>625.47</ele>
        <time>2018-02-08T13:19:18Z</time>
      </trkpt>
      <trkpt lat="48.30152" lon="6.98263">
        <ele>623.55</ele>
        <time>2018-02-08T13:19:27Z</time>
      </trkpt>
      <trkpt lat="48.30156" lon="6.98255">
        <ele>622.11</ele>
        <time>2018-02-08T13:19:33Z</time>
      </trkpt>
      <trkpt lat="48.30157" lon="6.98244">
        <ele>622.59</ele>
        <time>2018-02-08T13:19:40Z</time>
      </trkpt>
      <trkpt lat="48.3016" lon="6.98231">
        <ele>623.55</ele>
        <time>2018-02-08T13:19:49Z</time>
      </trkpt>
      <trkpt lat="48.30167" lon="6.98207">
        <ele>624.03</ele>
        <time>2018-02-08T13:20:03Z</time>
      </trkpt>
      <trkpt lat="48.30173" lon="6.98188">
        <ele>624.99</ele>
        <time>2018-02-08T13:20:15Z</time>
      </trkpt>
      <trkpt lat="48.30181" lon="6.98172">
        <ele>622.59</ele>
        <time>2018-02-08T13:20:27Z</time>
      </trkpt>
      <trkpt lat="48.30187" lon="6.98151">
        <ele>624.03</ele>
        <time>2018-02-08T13:20:39Z</time>
      </trkpt>
      <trkpt lat="48.30194" lon="6.9814">
        <ele>623.07</ele>
        <time>2018-02-08T13:20:51Z</time>
      </trkpt>
      <trkpt lat="48.30201" lon="6.98126">
        <ele>621.15</ele>
        <time>2018-02-08T13:21:03Z</time>
      </trkpt>
      <trkpt lat="48.3021" lon="6.9811">
        <ele>620.19</ele>
        <time>2018-02-08T13:21:15Z</time>
      </trkpt>
      <trkpt lat="48.30218" lon="6.9809">
        <ele>619.71</ele>
        <time>2018-02-08T13:21:28Z</time>
      </trkpt>
      <trkpt lat="48.30225" lon="6.98074">
        <ele>620.19</ele>
        <time>2018-02-08T13:21:40Z</time>
      </trkpt>
      <trkpt lat="48.30226" lon="6.98073">
        <ele>620.19</ele>
        <time>2018-02-08T13:21:41Z</time>
      </trkpt>
      <trkpt lat="48.30233" lon="6.98061">
        <ele>620.67</ele>
        <time>2018-02-08T13:21:52Z</time>
      </trkpt>
      <trkpt lat="48.30237" lon="6.98057">
        <ele>620.67</ele>
        <time>2018-02-08T13:21:58Z</time>
      </trkpt>
      <trkpt lat="48.30243" lon="6.9805">
        <ele>621.15</ele>
        <time>2018-02-08T13:22:04Z</time>
      </trkpt>
      <trkpt lat="48.30247" lon="6.98047">
        <ele>621.15</ele>
        <time>2018-02-08T13:22:08Z</time>
      </trkpt>
      <trkpt lat="48.30251" lon="6.98042">
        <ele>621.63</ele>
        <time>2018-02-08T13:22:12Z</time>
      </trkpt>
      <trkpt lat="48.30272" lon="6.98032">
        <ele>624.51</ele>
        <time>2018-02-08T13:22:25Z</time>
      </trkpt>
      <trkpt lat="48.30286" lon="6.98034">
        <ele>624.99</ele>
        <time>2018-02-08T13:22:38Z</time>
      </trkpt>
      <trkpt lat="48.30296" lon="6.98043">
        <ele>626.92</ele>
        <time>2018-02-08T13:22:49Z</time>
      </trkpt>
      <trkpt lat="48.30298" lon="6.98046">
        <ele>628.36</ele>
        <time>2018-02-08T13:23:02Z</time>
      </trkpt>
      <trkpt lat="48.30298" lon="6.98044">
        <ele>636.53</ele>
        <time>2018-02-08T13:23:22Z</time>
      </trkpt>
      <trkpt lat="48.30302" lon="6.98049">
        <ele>637.97</ele>
        <time>2018-02-08T13:23:39Z</time>
      </trkpt>
      <trkpt lat="48.30295" lon="6.98047">
        <ele>637.97</ele>
        <time>2018-02-08T13:23:52Z</time>
      </trkpt>
      <trkpt lat="48.30289" lon="6.98035">
        <ele>635.57</ele>
        <time>2018-02-08T13:24:08Z</time>
      </trkpt>
      <trkpt lat="48.30281" lon="6.98027">
        <ele>631.24</ele>
        <time>2018-02-08T13:24:23Z</time>
      </trkpt>
      <trkpt lat="48.30274" lon="6.98016">
        <ele>625.96</ele>
        <time>2018-02-08T13:24:38Z</time>
      </trkpt>
      <trkpt lat="48.30271" lon="6.98001">
        <ele>622.59</ele>
        <time>2018-02-08T13:24:53Z</time>
      </trkpt>
      <trkpt lat="48.30275" lon="6.9799">
        <ele>620.19</ele>
        <time>2018-02-08T13:25:06Z</time>
      </trkpt>
      <trkpt lat="48.30285" lon="6.97985">
        <ele>617.3</ele>
        <time>2018-02-08T13:25:19Z</time>
      </trkpt>
      <trkpt lat="48.30292" lon="6.97979">
        <ele>614.9</ele>
        <time>2018-02-08T13:25:32Z</time>
      </trkpt>
      <trkpt lat="48.30296" lon="6.97967">
        <ele>613.46</ele>
        <time>2018-02-08T13:25:45Z</time>
      </trkpt>
      <trkpt lat="48.30301" lon="6.97959">
        <ele>610.09</ele>
        <time>2018-02-08T13:25:58Z</time>
      </trkpt>
      <trkpt lat="48.30302" lon="6.9795">
        <ele>608.65</ele>
        <time>2018-02-08T13:26:09Z</time>
      </trkpt>
      <trkpt lat="48.30308" lon="6.97935">
        <ele>610.09</ele>
        <time>2018-02-08T13:26:24Z</time>
      </trkpt>
      <trkpt lat="48.3031" lon="6.97931">
        <ele>610.09</ele>
        <time>2018-02-08T13:26:37Z</time>
      </trkpt>
      <trkpt lat="48.30311" lon="6.9792">
        <ele>610.09</ele>
        <time>2018-02-08T13:26:52Z</time>
      </trkpt>
      <trkpt lat="48.30313" lon="6.97913">
        <ele>607.21</ele>
        <time>2018-02-08T13:27:04Z</time>
      </trkpt>
      <trkpt lat="48.30319" lon="6.97911">
        <ele>604.81</ele>
        <time>2018-02-08T13:27:23Z</time>
      </trkpt>
      <trkpt lat="48.30326" lon="6.97892">
        <ele>606.73</ele>
        <time>2018-02-08T13:27:39Z</time>
      </trkpt>
      <trkpt lat="48.30327" lon="6.97881">
        <ele>608.17</ele>
        <time>2018-02-08T13:27:52Z</time>
      </trkpt>
      <trkpt lat="48.3033" lon="6.97872">
        <ele>605.29</ele>
        <time>2018-02-08T13:28:05Z</time>
      </trkpt>
      <trkpt lat="48.30332" lon="6.97856">
        <ele>604.33</ele>
        <time>2018-02-08T13:28:17Z</time>
      </trkpt>
      <trkpt lat="48.30337" lon="6.97841">
        <ele>601.44</ele>
        <time>2018-02-08T13:28:31Z</time>
      </trkpt>
      <trkpt lat="48.30339" lon="6.97823">
        <ele>600.96</ele>
        <time>2018-02-08T13:28:45Z</time>
      </trkpt>
      <trkpt lat="48.30345" lon="6.97812">
        <ele>598.56</ele>
        <time>2018-02-08T13:28:59Z</time>
      </trkpt>
      <trkpt lat="48.3035" lon="6.978">
        <ele>595.67</ele>
        <time>2018-02-08T13:29:11Z</time>
      </trkpt>
      <trkpt lat="48.30353" lon="6.97782">
        <ele>592.79</ele>
        <time>2018-02-08T13:29:24Z</time>
      </trkpt>
      <trkpt lat="48.30359" lon="6.97764">
        <ele>587.98</ele>
        <time>2018-02-08T13:29:39Z</time>
      </trkpt>
      <trkpt lat="48.30364" lon="6.97748">
        <ele>585.58</ele>
        <time>2018-02-08T13:29:54Z</time>
      </trkpt>
      <trkpt lat="48.3037" lon="6.97732">
        <ele>581.25</ele>
        <time>2018-02-08T13:30:08Z</time>
      </trkpt>
      <trkpt lat="48.30378" lon="6.97719">
        <ele>576.45</ele>
        <time>2018-02-08T13:30:23Z</time>
      </trkpt>
      <trkpt lat="48.30378" lon="6.97716">
        <ele>575.97</ele>
        <time>2018-02-08T13:30:25Z</time>
      </trkpt>
      <trkpt lat="48.30378" lon="6.97693">
        <ele>575.49</ele>
        <time>2018-02-08T13:30:39Z</time>
      </trkpt>
      <trkpt lat="48.30375" lon="6.97672">
        <ele>579.33</ele>
        <time>2018-02-08T13:30:51Z</time>
      </trkpt>
      <trkpt lat="48.30372" lon="6.97659">
        <ele>578.85</ele>
        <time>2018-02-08T13:31:06Z</time>
      </trkpt>
      <trkpt lat="48.30368" lon="6.97645">
        <ele>575.97</ele>
        <time>2018-02-08T13:31:20Z</time>
      </trkpt>
      <trkpt lat="48.30361" lon="6.9763">
        <ele>574.04</ele>
        <time>2018-02-08T13:31:35Z</time>
      </trkpt>
      <trkpt lat="48.30351" lon="6.97612">
        <ele>575.01</ele>
        <time>2018-02-08T13:31:49Z</time>
      </trkpt>
      <trkpt lat="48.3034" lon="6.97597">
        <ele>575.01</ele>
        <time>2018-02-08T13:32:03Z</time>
      </trkpt>
      <trkpt lat="48.30339" lon="6.97589">
        <ele>574.53</ele>
        <time>2018-02-08T13:32:08Z</time>
      </trkpt>
      <trkpt lat="48.30331" lon="6.97566">
        <ele>573.56</ele>
        <time>2018-02-08T13:32:22Z</time>
      </trkpt>
      <trkpt lat="48.30329" lon="6.97551">
        <ele>567.8</ele>
        <time>2018-02-08T13:32:37Z</time>
      </trkpt>
      <trkpt lat="48.30333" lon="6.9754">
        <ele>560.11</ele>
        <time>2018-02-08T13:32:50Z</time>
      </trkpt>
      <trkpt lat="48.30335" lon="6.97529">
        <ele>553.86</ele>
        <time>2018-02-08T13:33:03Z</time>
      </trkpt>
      <trkpt lat="48.30334" lon="6.97514">
        <ele>550.49</ele>
        <time>2018-02-08T13:33:16Z</time>
      </trkpt>
      <trkpt lat="48.30333" lon="6.97499">
        <ele>552.9</ele>
        <time>2018-02-08T13:33:32Z</time>
      </trkpt>
      <trkpt lat="48.30334" lon="6.97475">
        <ele>556.74</ele>
        <time>2018-02-08T13:33:48Z</time>
      </trkpt>
      <trkpt lat="48.30335" lon="6.97457">
        <ele>557.22</ele>
        <time>2018-02-08T13:34:03Z</time>
      </trkpt>
      <trkpt lat="48.30327" lon="6.97436">
        <ele>559.62</ele>
        <time>2018-02-08T13:34:17Z</time>
      </trkpt>
      <trkpt lat="48.30323" lon="6.97421">
        <ele>562.03</ele>
        <time>2018-02-08T13:34:29Z</time>
      </trkpt>
      <trkpt lat="48.30316" lon="6.97407">
        <ele>564.43</ele>
        <time>2018-02-08T13:34:41Z</time>
      </trkpt>
      <trkpt lat="48.30308" lon="6.97389">
        <ele>567.32</ele>
        <time>2018-02-08T13:34:54Z</time>
      </trkpt>
      <trkpt lat="48.30301" lon="6.97377">
        <ele>563.95</ele>
        <time>2018-02-08T13:35:09Z</time>
      </trkpt>
      <trkpt lat="48.30296" lon="6.97364">
        <ele>557.7</ele>
        <time>2018-02-08T13:35:23Z</time>
      </trkpt>
      <trkpt lat="48.30289" lon="6.97355">
        <ele>555.3</ele>
        <time>2018-02-08T13:35:36Z</time>
      </trkpt>
      <trkpt lat="48.30277" lon="6.97342">
        <ele>553.86</ele>
        <time>2018-02-08T13:35:50Z</time>
      </trkpt>
      <trkpt lat="48.30269" lon="6.97329">
        <ele>550.49</ele>
        <time>2018-02-08T13:36:02Z</time>
      </trkpt>
      <trkpt lat="48.3026" lon="6.97318">
        <ele>549.05</ele>
        <time>2018-02-08T13:36:15Z</time>
      </trkpt>
      <trkpt lat="48.30249" lon="6.97301">
        <ele>550.49</ele>
        <time>2018-02-08T13:36:29Z</time>
      </trkpt>
      <trkpt lat="48.30236" lon="6.97283">
        <ele>548.57</ele>
        <time>2018-02-08T13:36:47Z</time>
      </trkpt>
      <trkpt lat="48.30224" lon="6.97263">
        <ele>548.57</ele>
        <time>2018-02-08T13:37:02Z</time>
      </trkpt>
      <trkpt lat="48.30214" lon="6.97253">
        <ele>548.57</ele>
        <time>2018-02-08T13:37:16Z</time>
      </trkpt>
      <trkpt lat="48.30205" lon="6.97235">
        <ele>545.69</ele>
        <time>2018-02-08T13:37:31Z</time>
      </trkpt>
      <trkpt lat="48.30199" lon="6.97223">
        <ele>540.88</ele>
        <time>2018-02-08T13:37:45Z</time>
      </trkpt>
      <trkpt lat="48.3019" lon="6.97211">
        <ele>534.15</ele>
        <time>2018-02-08T13:38:01Z</time>
      </trkpt>
      <trkpt lat="48.30175" lon="6.97192">
        <ele>532.71</ele>
        <time>2018-02-08T13:38:15Z</time>
      </trkpt>
      <trkpt lat="48.30169" lon="6.97178">
        <ele>529.34</ele>
        <time>2018-02-08T13:38:27Z</time>
      </trkpt>
      <trkpt lat="48.30164" lon="6.97161">
        <ele>525.5</ele>
        <time>2018-02-08T13:38:42Z</time>
      </trkpt>
      <trkpt lat="48.3016" lon="6.97147">
        <ele>523.09</ele>
        <time>2018-02-08T13:38:57Z</time>
      </trkpt>
      <trkpt lat="48.30153" lon="6.97131">
        <ele>518.77</ele>
        <time>2018-02-08T13:39:11Z</time>
      </trkpt>
      <trkpt lat="48.30147" lon="6.97106">
        <ele>518.77</ele>
        <time>2018-02-08T13:39:24Z</time>
      </trkpt>
      <trkpt lat="48.30138" lon="6.9708">
        <ele>521.65</ele>
        <time>2018-02-08T13:39:38Z</time>
      </trkpt>
      <trkpt lat="48.3013" lon="6.97064">
        <ele>525.02</ele>
        <time>2018-02-08T13:39:49Z</time>
      </trkpt>
      <trkpt lat="48.30127" lon="6.97042">
        <ele>525.02</ele>
        <time>2018-02-08T13:40:04Z</time>
      </trkpt>
      <trkpt lat="48.30122" lon="6.9702">
        <ele>526.46</ele>
        <time>2018-02-08T13:40:18Z</time>
      </trkpt>
      <trkpt lat="48.30124" lon="6.97009">
        <ele>526.46</ele>
        <time>2018-02-08T13:40:32Z</time>
      </trkpt>
      <trkpt lat="48.30127" lon="6.97">
        <ele>524.54</ele>
        <time>2018-02-08T13:40:45Z</time>
      </trkpt>
      <trkpt lat="48.30128" lon="6.96981">
        <ele>524.54</ele>
        <time>2018-02-08T13:40:58Z</time>
      </trkpt>
      <trkpt lat="48.30131" lon="6.96968">
        <ele>524.54</ele>
        <time>2018-02-08T13:41:11Z</time>
      </trkpt>
      <trkpt lat="48.30129" lon="6.96952">
        <ele>523.09</ele>
        <time>2018-02-08T13:41:25Z</time>
      </trkpt>
      <trkpt lat="48.30129" lon="6.9693">
        <ele>521.65</ele>
        <time>2018-02-08T13:41:39Z</time>
      </trkpt>
      <trkpt lat="48.30128" lon="6.96915">
        <ele>518.29</ele>
        <time>2018-02-08T13:41:50Z</time>
      </trkpt>
      <trkpt lat="48.30129" lon="6.96895">
        <ele>514.92</ele>
        <time>2018-02-08T13:42:05Z</time>
      </trkpt>
      <trkpt lat="48.30131" lon="6.96878">
        <ele>511.56</ele>
        <time>2018-02-08T13:42:18Z</time>
      </trkpt>
      <trkpt lat="48.3013" lon="6.96871">
        <ele>513</ele>
        <time>2018-02-08T13:42:35Z</time>
      </trkpt>
      <trkpt lat="48.30129" lon="6.96864">
        <ele>513.96</ele>
        <time>2018-02-08T13:42:56Z</time>
      </trkpt>
      <trkpt lat="48.30129" lon="6.96869">
        <ele>515.4</ele>
        <time>2018-02-08T13:43:24Z</time>
      </trkpt>
      <trkpt lat="48.30132" lon="6.96866">
        <ele>518.29</ele>
        <time>2018-02-08T13:43:49Z</time>
      </trkpt>
      <trkpt lat="48.30126" lon="6.96866">
        <ele>521.17</ele>
        <time>2018-02-08T13:44:13Z</time>
      </trkpt>
      <trkpt lat="48.30129" lon="6.96866">
        <ele>517.81</ele>
        <time>2018-02-08T13:44:43Z</time>
      </trkpt>
      <trkpt lat="48.3013" lon="6.96859">
        <ele>519.73</ele>
        <time>2018-02-08T13:45:15Z</time>
      </trkpt>
      <trkpt lat="48.30123" lon="6.96854">
        <ele>525.02</ele>
        <time>2018-02-08T13:45:48Z</time>
      </trkpt>
      <trkpt lat="48.30129" lon="6.96865">
        <ele>521.65</ele>
        <time>2018-02-08T13:46:10Z</time>
      </trkpt>
      <trkpt lat="48.30138" lon="6.96864">
        <ele>524.06</ele>
        <time>2018-02-08T13:46:40Z</time>
      </trkpt>
      <trkpt lat="48.30132" lon="6.96865">
        <ele>523.58</ele>
        <time>2018-02-08T13:47:10Z</time>
      </trkpt>
      <trkpt lat="48.3013" lon="6.96865">
        <ele>523.58</ele>
        <time>2018-02-08T13:47:36Z</time>
      </trkpt>
      <trkpt lat="48.30133" lon="6.96865">
        <ele>520.69</ele>
        <time>2018-02-08T13:48:04Z</time>
      </trkpt>
      <trkpt lat="48.30128" lon="6.96866">
        <ele>516.85</ele>
        <time>2018-02-08T13:48:38Z</time>
      </trkpt>
      <trkpt lat="48.3012" lon="6.96875">
        <ele>519.73</ele>
        <time>2018-02-08T13:49:10Z</time>
      </trkpt>
      <trkpt lat="48.3012" lon="6.96875">
        <ele>522.61</ele>
        <time>2018-02-08T13:49:45Z</time>
      </trkpt>
      <trkpt lat="48.30121" lon="6.96879">
        <ele>520.69</ele>
        <time>2018-02-08T13:50:05Z</time>
      </trkpt>
      <trkpt lat="48.3012" lon="6.96882">
        <ele>521.17</ele>
        <time>2018-02-08T13:50:29Z</time>
      </trkpt>
      <trkpt lat="48.30113" lon="6.96895">
        <ele>520.69</ele>
        <time>2018-02-08T13:50:51Z</time>
      </trkpt>
      <trkpt lat="48.30107" lon="6.96911">
        <ele>516.37</ele>
        <time>2018-02-08T13:51:10Z</time>
      </trkpt>
      <trkpt lat="48.30101" lon="6.96935">
        <ele>510.12</ele>
        <time>2018-02-08T13:51:31Z</time>
      </trkpt>
      <trkpt lat="48.30097" lon="6.96955">
        <ele>506.75</ele>
        <time>2018-02-08T13:51:51Z</time>
      </trkpt>
      <trkpt lat="48.30095" lon="6.9698">
        <ele>504.35</ele>
        <time>2018-02-08T13:52:11Z</time>
      </trkpt>
      <trkpt lat="48.30094" lon="6.97004">
        <ele>499.54</ele>
        <time>2018-02-08T13:52:33Z</time>
      </trkpt>
      <trkpt lat="48.30091" lon="6.9703">
        <ele>497.14</ele>
        <time>2018-02-08T13:52:54Z</time>
      </trkpt>
      <trkpt lat="48.30091" lon="6.9707">
        <ele>494.74</ele>
        <time>2018-02-08T13:53:18Z</time>
      </trkpt>
      <trkpt lat="48.30087" lon="6.97096">
        <ele>495.22</ele>
        <time>2018-02-08T13:53:35Z</time>
      </trkpt>
      <trkpt lat="48.30089" lon="6.97116">
        <ele>491.37</ele>
        <time>2018-02-08T13:53:54Z</time>
      </trkpt>
      <trkpt lat="48.30097" lon="6.97138">
        <ele>485.12</ele>
        <time>2018-02-08T13:54:17Z</time>
      </trkpt>
      <trkpt lat="48.3011" lon="6.97171">
        <ele>487.53</ele>
        <time>2018-02-08T13:54:37Z</time>
      </trkpt>
      <trkpt lat="48.3012" lon="6.97199">
        <ele>488.49</ele>
        <time>2018-02-08T13:54:56Z</time>
      </trkpt>
      <trkpt lat="48.30106" lon="6.97232">
        <ele>496.66</ele>
        <time>2018-02-08T13:55:17Z</time>
      </trkpt>
      <trkpt lat="48.30098" lon="6.97262">
        <ele>498.1</ele>
        <time>2018-02-08T13:55:38Z</time>
      </trkpt>
      <trkpt lat="48.30091" lon="6.97289">
        <ele>496.66</ele>
        <time>2018-02-08T13:55:58Z</time>
      </trkpt>
      <trkpt lat="48.30086" lon="6.97315">
        <ele>494.26</ele>
        <time>2018-02-08T13:56:19Z</time>
      </trkpt>
      <trkpt lat="48.30083" lon="6.9733">
        <ele>494.74</ele>
        <time>2018-02-08T13:56:26Z</time>
      </trkpt>
      <trkpt lat="48.30081" lon="6.97358">
        <ele>491.37</ele>
        <time>2018-02-08T13:56:43Z</time>
      </trkpt>
      <trkpt lat="48.30079" lon="6.97381">
        <ele>488.01</ele>
        <time>2018-02-08T13:57:00Z</time>
      </trkpt>
      <trkpt lat="48.30076" lon="6.97398">
        <ele>491.85</ele>
        <time>2018-02-08T13:57:18Z</time>
      </trkpt>
      <trkpt lat="48.3007" lon="6.97415">
        <ele>494.74</ele>
        <time>2018-02-08T13:57:34Z</time>
      </trkpt>
      <trkpt lat="48.30062" lon="6.97429">
        <ele>497.62</ele>
        <time>2018-02-08T13:57:50Z</time>
      </trkpt>
      <trkpt lat="48.30062" lon="6.97449">
        <ele>496.18</ele>
        <time>2018-02-08T13:58:07Z</time>
      </trkpt>
      <trkpt lat="48.30068" lon="6.97478">
        <ele>490.89</ele>
        <time>2018-02-08T13:58:29Z</time>
      </trkpt>
      <trkpt lat="48.30075" lon="6.97503">
        <ele>484.64</ele>
        <time>2018-02-08T13:58:48Z</time>
      </trkpt>
      <trkpt lat="48.30071" lon="6.97535">
        <ele>482.72</ele>
        <time>2018-02-08T13:59:06Z</time>
      </trkpt>
      <trkpt lat="48.30047" lon="6.97557">
        <ele>487.53</ele>
        <time>2018-02-08T13:59:25Z</time>
      </trkpt>
      <trkpt lat="48.30025" lon="6.97565">
        <ele>489.45</ele>
        <time>2018-02-08T13:59:44Z</time>
      </trkpt>
      <trkpt lat="48.30002" lon="6.97572">
        <ele>490.41</ele>
        <time>2018-02-08T14:00:02Z</time>
      </trkpt>
      <trkpt lat="48.29976" lon="6.9758">
        <ele>489.93</ele>
        <time>2018-02-08T14:00:23Z</time>
      </trkpt>
      <trkpt lat="48.29958" lon="6.97595">
        <ele>488.01</ele>
        <time>2018-02-08T14:00:42Z</time>
      </trkpt>
      <trkpt lat="48.29944" lon="6.9761">
        <ele>486.56</ele>
        <time>2018-02-08T14:01:01Z</time>
      </trkpt>
      <trkpt lat="48.29927" lon="6.9764">
        <ele>487.05</ele>
        <time>2018-02-08T14:01:21Z</time>
      </trkpt>
      <trkpt lat="48.29925" lon="6.97644">
        <ele>486.56</ele>
        <time>2018-02-08T14:01:23Z</time>
      </trkpt>
      <trkpt lat="48.2991" lon="6.9768">
        <ele>484.16</ele>
        <time>2018-02-08T14:01:44Z</time>
      </trkpt>
      <trkpt lat="48.29903" lon="6.97707">
        <ele>477.43</ele>
        <time>2018-02-08T14:02:03Z</time>
      </trkpt>
      <trkpt lat="48.29897" lon="6.97738">
        <ele>475.03</ele>
        <time>2018-02-08T14:02:23Z</time>
      </trkpt>
      <trkpt lat="48.29898" lon="6.97752">
        <ele>477.43</ele>
        <time>2018-02-08T14:02:42Z</time>
      </trkpt>
      <trkpt lat="48.29909" lon="6.97767">
        <ele>473.11</ele>
        <time>2018-02-08T14:03:01Z</time>
      </trkpt>
      <trkpt lat="48.2993" lon="6.97785">
        <ele>470.22</ele>
        <time>2018-02-08T14:03:21Z</time>
      </trkpt>
      <trkpt lat="48.29938" lon="6.97809">
        <ele>470.22</ele>
        <time>2018-02-08T14:03:39Z</time>
      </trkpt>
      <trkpt lat="48.29934" lon="6.97842">
        <ele>471.18</ele>
        <time>2018-02-08T14:03:58Z</time>
      </trkpt>
      <trkpt lat="48.29923" lon="6.97868">
        <ele>471.66</ele>
        <time>2018-02-08T14:04:18Z</time>
      </trkpt>
      <trkpt lat="48.299" lon="6.97886">
        <ele>469.26</ele>
        <time>2018-02-08T14:04:40Z</time>
      </trkpt>
      <trkpt lat="48.2988" lon="6.97897">
        <ele>463.97</ele>
        <time>2018-02-08T14:05:00Z</time>
      </trkpt>
      <trkpt lat="48.29858" lon="6.97916">
        <ele>458.69</ele>
        <time>2018-02-08T14:05:23Z</time>
      </trkpt>
      <trkpt lat="48.29829" lon="6.97933">
        <ele>461.57</ele>
        <time>2018-02-08T14:05:41Z</time>
      </trkpt>
      <trkpt lat="48.29807" lon="6.97959">
        <ele>460.61</ele>
        <time>2018-02-08T14:06:05Z</time>
      </trkpt>
      <trkpt lat="48.29787" lon="6.97998">
        <ele>458.69</ele>
        <time>2018-02-08T14:06:28Z</time>
      </trkpt>
      <trkpt lat="48.29781" lon="6.98024">
        <ele>451</ele>
        <time>2018-02-08T14:06:48Z</time>
      </trkpt>
      <trkpt lat="48.29774" lon="6.98053">
        <ele>447.63</ele>
        <time>2018-02-08T14:07:09Z</time>
      </trkpt>
      <trkpt lat="48.29757" lon="6.98089">
        <ele>446.67</ele>
        <time>2018-02-08T14:07:31Z</time>
      </trkpt>
      <trkpt lat="48.29748" lon="6.98123">
        <ele>448.11</ele>
        <time>2018-02-08T14:07:52Z</time>
      </trkpt>
      <trkpt lat="48.29749" lon="6.98148">
        <ele>445.71</ele>
        <time>2018-02-08T14:08:09Z</time>
      </trkpt>
      <trkpt lat="48.29753" lon="6.9818">
        <ele>439.94</ele>
        <time>2018-02-08T14:08:28Z</time>
      </trkpt>
      <trkpt lat="48.29747" lon="6.98218">
        <ele>438.5</ele>
        <time>2018-02-08T14:08:48Z</time>
      </trkpt>
      <trkpt lat="48.29742" lon="6.98252">
        <ele>434.65</ele>
        <time>2018-02-08T14:09:07Z</time>
      </trkpt>
      <trkpt lat="48.29738" lon="6.98279">
        <ele>432.73</ele>
        <time>2018-02-08T14:09:24Z</time>
      </trkpt>
      <trkpt lat="48.29728" lon="6.98307">
        <ele>431.29</ele>
        <time>2018-02-08T14:09:45Z</time>
      </trkpt>
      <trkpt lat="48.29718" lon="6.9833">
        <ele>428.4</ele>
        <time>2018-02-08T14:10:06Z</time>
      </trkpt>
      <trkpt lat="48.29694" lon="6.98352">
        <ele>430.81</ele>
        <time>2018-02-08T14:10:28Z</time>
      </trkpt>
      <trkpt lat="48.29673" lon="6.98372">
        <ele>433.21</ele>
        <time>2018-02-08T14:10:50Z</time>
      </trkpt>
      <trkpt lat="48.29655" lon="6.98391">
        <ele>434.17</ele>
        <time>2018-02-08T14:11:11Z</time>
      </trkpt>
      <trkpt lat="48.29642" lon="6.9842">
        <ele>432.73</ele>
        <time>2018-02-08T14:11:32Z</time>
      </trkpt>
      <trkpt lat="48.29642" lon="6.98447">
        <ele>436.58</ele>
        <time>2018-02-08T14:11:50Z</time>
      </trkpt>
      <trkpt lat="48.29648" lon="6.98475">
        <ele>430.81</ele>
        <time>2018-02-08T14:12:12Z</time>
      </trkpt>
      <trkpt lat="48.29638" lon="6.98511">
        <ele>429.85</ele>
        <time>2018-02-08T14:12:33Z</time>
      </trkpt>
      <trkpt lat="48.29621" lon="6.98532">
        <ele>434.65</ele>
        <time>2018-02-08T14:12:54Z</time>
      </trkpt>
      <trkpt lat="48.29615" lon="6.98537">
        <ele>436.58</ele>
        <time>2018-02-08T14:13:00Z</time>
      </trkpt>
      <trkpt lat="48.29591" lon="6.9855">
        <ele>437.06</ele>
        <time>2018-02-08T14:13:21Z</time>
      </trkpt>
      <trkpt lat="48.29564" lon="6.98566">
        <ele>433.69</ele>
        <time>2018-02-08T14:13:40Z</time>
      </trkpt>
      <trkpt lat="48.29543" lon="6.98585">
        <ele>426.48</ele>
        <time>2018-02-08T14:14:02Z</time>
      </trkpt>
      <trkpt lat="48.29523" lon="6.98602">
        <ele>429.37</ele>
        <time>2018-02-08T14:14:24Z</time>
      </trkpt>
      <trkpt lat="48.29514" lon="6.98596">
        <ele>434.65</ele>
        <time>2018-02-08T14:14:41Z</time>
      </trkpt>
      <trkpt lat="48.29501" lon="6.98591">
        <ele>435.13</ele>
        <time>2018-02-08T14:14:59Z</time>
      </trkpt>
      <trkpt lat="48.29489" lon="6.9859">
        <ele>435.61</ele>
        <time>2018-02-08T14:15:16Z</time>
      </trkpt>
      <trkpt lat="48.2948" lon="6.9859">
        <ele>438.98</ele>
        <time>2018-02-08T14:15:39Z</time>
      </trkpt>
      <trkpt lat="48.2947" lon="6.98602">
        <ele>441.86</ele>
        <time>2018-02-08T14:15:57Z</time>
      </trkpt>
      <trkpt lat="48.2947" lon="6.98603">
        <ele>441.86</ele>
        <time>2018-02-08T14:15:58Z</time>
      </trkpt>
      <trkpt lat="48.29471" lon="6.98614">
        <ele>441.38</ele>
        <time>2018-02-08T14:16:11Z</time>
      </trkpt>
      <trkpt lat="48.2947" lon="6.98627">
        <ele>439.46</ele>
        <time>2018-02-08T14:16:29Z</time>
      </trkpt>
      <trkpt lat="48.29471" lon="6.98644">
        <ele>437.54</ele>
        <time>2018-02-08T14:16:50Z</time>
      </trkpt>
      <trkpt lat="48.29467" lon="6.98669">
        <ele>435.13</ele>
        <time>2018-02-08T14:17:13Z</time>
      </trkpt>
      <trkpt lat="48.29462" lon="6.98691">
        <ele>436.58</ele>
        <time>2018-02-08T14:17:33Z</time>
      </trkpt>
      <trkpt lat="48.29456" lon="6.98715">
        <ele>438.98</ele>
        <time>2018-02-08T14:17:51Z</time>
      </trkpt>
      <trkpt lat="48.29451" lon="6.98738">
        <ele>438.98</ele>
        <time>2018-02-08T14:18:10Z</time>
      </trkpt>
      <trkpt lat="48.29443" lon="6.98759">
        <ele>435.13</ele>
        <time>2018-02-08T14:18:30Z</time>
      </trkpt>
      <trkpt lat="48.29432" lon="6.98783">
        <ele>432.25</ele>
        <time>2018-02-08T14:18:49Z</time>
      </trkpt>
      <trkpt lat="48.2942" lon="6.98809">
        <ele>427.92</ele>
        <time>2018-02-08T14:19:10Z</time>
      </trkpt>
      <trkpt lat="48.29405" lon="6.98834">
        <ele>426.48</ele>
        <time>2018-02-08T14:19:30Z</time>
      </trkpt>
      <trkpt lat="48.29386" lon="6.98852">
        <ele>427.92</ele>
        <time>2018-02-08T14:19:50Z</time>
      </trkpt>
      <trkpt lat="48.29364" lon="6.98863">
        <ele>430.81</ele>
        <time>2018-02-08T14:20:11Z</time>
      </trkpt>
      <trkpt lat="48.29347" lon="6.98872">
        <ele>430.33</ele>
        <time>2018-02-08T14:20:30Z</time>
      </trkpt>
      <trkpt lat="48.29331" lon="6.9888">
        <ele>430.81</ele>
        <time>2018-02-08T14:20:46Z</time>
      </trkpt>
      <trkpt lat="48.29322" lon="6.9888">
        <ele>430.81</ele>
        <time>2018-02-08T14:20:54Z</time>
      </trkpt>
      <trkpt lat="48.293" lon="6.98872">
        <ele>439.46</ele>
        <time>2018-02-08T14:21:09Z</time>
      </trkpt>
      <trkpt lat="48.29291" lon="6.98872">
        <ele>442.34</ele>
        <time>2018-02-08T14:21:19Z</time>
      </trkpt>
      <trkpt lat="48.29279" lon="6.98878">
        <ele>440.9</ele>
        <time>2018-02-08T14:21:34Z</time>
      </trkpt>
      <trkpt lat="48.29279" lon="6.98878">
        <ele>440.9</ele>
        <time>2018-02-08T14:21:36Z</time>
      </trkpt>
      <trkpt lat="48.29272" lon="6.98875">
        <ele>440.9</ele>
        <time>2018-02-08T14:21:45Z</time>
      </trkpt>
      <trkpt lat="48.29254" lon="6.98875">
        <ele>440.42</ele>
        <time>2018-02-08T14:22:01Z</time>
      </trkpt>
      <trkpt lat="48.29252" lon="6.98875">
        <ele>440.42</ele>
        <time>2018-02-08T14:22:03Z</time>
      </trkpt>
      <trkpt lat="48.2925" lon="6.98875">
        <ele>440.42</ele>
        <time>2018-02-08T14:22:05Z</time>
      </trkpt>
      <trkpt lat="48.29234" lon="6.98875">
        <ele>438.5</ele>
        <time>2018-02-08T14:22:19Z</time>
      </trkpt>
      <trkpt lat="48.2922" lon="6.98874">
        <ele>438.5</ele>
        <time>2018-02-08T14:22:33Z</time>
      </trkpt>
      <trkpt lat="48.29212" lon="6.98878">
        <ele>438.98</ele>
        <time>2018-02-08T14:22:40Z</time>
      </trkpt>
      <trkpt lat="48.292" lon="6.98887">
        <ele>437.54</ele>
        <time>2018-02-08T14:22:53Z</time>
      </trkpt>
      <trkpt lat="48.29189" lon="6.98902">
        <ele>437.06</ele>
        <time>2018-02-08T14:23:07Z</time>
      </trkpt>
      <trkpt lat="48.29187" lon="6.98905">
        <ele>436.58</ele>
        <time>2018-02-08T14:23:11Z</time>
      </trkpt>
      <trkpt lat="48.29184" lon="6.98908">
        <ele>436.1</ele>
        <time>2018-02-08T14:23:14Z</time>
      </trkpt>
      <trkpt lat="48.29179" lon="6.98918">
        <ele>435.13</ele>
        <time>2018-02-08T14:23:22Z</time>
      </trkpt>
      <trkpt lat="48.29187" lon="6.98937">
        <ele>433.69</ele>
        <time>2018-02-08T14:23:36Z</time>
      </trkpt>
      <trkpt lat="48.29188" lon="6.98958">
        <ele>433.21</ele>
        <time>2018-02-08T14:23:52Z</time>
      </trkpt>
      <trkpt lat="48.2918" lon="6.98967">
        <ele>432.25</ele>
        <time>2018-02-08T14:24:05Z</time>
      </trkpt>
      <trkpt lat="48.2918" lon="6.98967">
        <ele>432.25</ele>
        <time>2018-02-08T14:24:06Z</time>
      </trkpt>
      <trkpt lat="48.29167" lon="6.98973">
        <ele>430.81</ele>
        <time>2018-02-08T14:24:18Z</time>
      </trkpt>
      <trkpt lat="48.29165" lon="6.98974">
        <ele>430.81</ele>
        <time>2018-02-08T14:24:20Z</time>
      </trkpt>
      <trkpt lat="48.29154" lon="6.98978">
        <ele>429.85</ele>
        <time>2018-02-08T14:24:32Z</time>
      </trkpt>
      <trkpt lat="48.2915" lon="6.98979">
        <ele>428.89</ele>
        <time>2018-02-08T14:24:39Z</time>
      </trkpt>
      <trkpt lat="48.29139" lon="6.98983">
        <ele>426.48</ele>
        <time>2018-02-08T14:24:53Z</time>
      </trkpt>
      <trkpt lat="48.29131" lon="6.98987">
        <ele>425.04</ele>
        <time>2018-02-08T14:25:05Z</time>
      </trkpt>
      <trkpt lat="48.29122" lon="6.9899">
        <ele>423.6</ele>
        <time>2018-02-08T14:25:17Z</time>
      </trkpt>
      <trkpt lat="48.2912" lon="6.9899">
        <ele>423.6</ele>
        <time>2018-02-08T14:25:19Z</time>
      </trkpt>
      <trkpt lat="48.29105" lon="6.9899">
        <ele>422.64</ele>
        <time>2018-02-08T14:25:33Z</time>
      </trkpt>
      <trkpt lat="48.29101" lon="6.98992">
        <ele>422.64</ele>
        <time>2018-02-08T14:25:36Z</time>
      </trkpt>
      <trkpt lat="48.29084" lon="6.99002">
        <ele>421.68</ele>
        <time>2018-02-08T14:25:50Z</time>
      </trkpt>
      <trkpt lat="48.2907" lon="6.9901">
        <ele>423.12</ele>
        <time>2018-02-08T14:26:00Z</time>
      </trkpt>
      <trkpt lat="48.29058" lon="6.99022">
        <ele>421.68</ele>
        <time>2018-02-08T14:26:13Z</time>
      </trkpt>
      <trkpt lat="48.29051" lon="6.99043">
        <ele>418.31</ele>
        <time>2018-02-08T14:26:30Z</time>
      </trkpt>
      <trkpt lat="48.29044" lon="6.99059">
        <ele>415.43</ele>
        <time>2018-02-08T14:26:45Z</time>
      </trkpt>
      <trkpt lat="48.29038" lon="6.99073">
        <ele>413.5</ele>
        <time>2018-02-08T14:26:58Z</time>
      </trkpt>
      <trkpt lat="48.29034" lon="6.99082">
        <ele>410.62</ele>
        <time>2018-02-08T14:27:10Z</time>
      </trkpt>
      <trkpt lat="48.29026" lon="6.99091">
        <ele>409.18</ele>
        <time>2018-02-08T14:27:24Z</time>
      </trkpt>
      <trkpt lat="48.29021" lon="6.99099">
        <ele>408.22</ele>
        <time>2018-02-08T14:27:36Z</time>
      </trkpt>
      <trkpt lat="48.29013" lon="6.99107">
        <ele>407.74</ele>
        <time>2018-02-08T14:27:48Z</time>
      </trkpt>
      <trkpt lat="48.29002" lon="6.99117">
        <ele>407.26</ele>
        <time>2018-02-08T14:28:01Z</time>
      </trkpt>
      <trkpt lat="48.28994" lon="6.99126">
        <ele>405.81</ele>
        <time>2018-02-08T14:28:13Z</time>
      </trkpt>
      <trkpt lat="48.28983" lon="6.99133">
        <ele>403.41</ele>
        <time>2018-02-08T14:28:29Z</time>
      </trkpt>
      <trkpt lat="48.28974" lon="6.99134">
        <ele>402.45</ele>
        <time>2018-02-08T14:28:43Z</time>
      </trkpt>
      <trkpt lat="48.28971" lon="6.99137">
        <ele>402.45</ele>
        <time>2018-02-08T14:28:59Z</time>
      </trkpt>
      <trkpt lat="48.28968" lon="6.99138">
        <ele>401.49</ele>
        <time>2018-02-08T14:29:21Z</time>
      </trkpt>
      <trkpt lat="48.28962" lon="6.99139">
        <ele>401.49</ele>
        <time>2018-02-08T14:29:40Z</time>
      </trkpt>
      <trkpt lat="48.2896" lon="6.99142">
        <ele>400.53</ele>
        <time>2018-02-08T14:29:58Z</time>
      </trkpt>
      <trkpt lat="48.28958" lon="6.99147">
        <ele>401.49</ele>
        <time>2018-02-08T14:30:13Z</time>
      </trkpt>
      <trkpt lat="48.28957" lon="6.99157">
        <ele>402.45</ele>
        <time>2018-02-08T14:30:27Z</time>
      </trkpt>
      <trkpt lat="48.28961" lon="6.99169">
        <ele>401.97</ele>
        <time>2018-02-08T14:30:38Z</time>
      </trkpt>
      <trkpt lat="48.28965" lon="6.99184">
        <ele>402.45</ele>
        <time>2018-02-08T14:30:53Z</time>
      </trkpt>
      <trkpt lat="48.28968" lon="6.992">
        <ele>402.93</ele>
        <time>2018-02-08T14:31:07Z</time>
      </trkpt>
      <trkpt lat="48.28969" lon="6.99207">
        <ele>402.45</ele>
        <time>2018-02-08T14:31:13Z</time>
      </trkpt>
      <trkpt lat="48.28968" lon="6.99223">
        <ele>401.97</ele>
        <time>2018-02-08T14:31:26Z</time>
      </trkpt>
      <trkpt lat="48.28964" lon="6.99242">
        <ele>404.37</ele>
        <time>2018-02-08T14:31:41Z</time>
      </trkpt>
      <trkpt lat="48.28958" lon="6.99257">
        <ele>406.77</ele>
        <time>2018-02-08T14:31:56Z</time>
      </trkpt>
      <trkpt lat="48.28953" lon="6.99266">
        <ele>407.74</ele>
        <time>2018-02-08T14:32:05Z</time>
      </trkpt>
      <trkpt lat="48.28945" lon="6.99277">
        <ele>408.7</ele>
        <time>2018-02-08T14:32:19Z</time>
      </trkpt>
      <trkpt lat="48.28938" lon="6.99289">
        <ele>408.22</ele>
        <time>2018-02-08T14:32:33Z</time>
      </trkpt>
      <trkpt lat="48.28932" lon="6.99298">
        <ele>408.22</ele>
        <time>2018-02-08T14:32:44Z</time>
      </trkpt>
      <trkpt lat="48.28926" lon="6.99303">
        <ele>408.7</ele>
        <time>2018-02-08T14:32:57Z</time>
      </trkpt>
      <trkpt lat="48.28923" lon="6.99304">
        <ele>412.54</ele>
        <time>2018-02-08T14:33:10Z</time>
      </trkpt>
      <trkpt lat="48.28916" lon="6.99304">
        <ele>417.35</ele>
        <time>2018-02-08T14:33:23Z</time>
      </trkpt>
      <trkpt lat="48.28906" lon="6.99303">
        <ele>421.68</ele>
        <time>2018-02-08T14:33:35Z</time>
      </trkpt>
      <trkpt lat="48.28893" lon="6.99305">
        <ele>426</ele>
        <time>2018-02-08T14:33:50Z</time>
      </trkpt>
      <trkpt lat="48.28886" lon="6.99311">
        <ele>426.96</ele>
        <time>2018-02-08T14:34:06Z</time>
      </trkpt>
      <trkpt lat="48.28886" lon="6.99309">
        <ele>428.4</ele>
        <time>2018-02-08T14:34:24Z</time>
      </trkpt>
      <trkpt lat="48.28887" lon="6.99311">
        <ele>426.96</ele>
        <time>2018-02-08T14:34:43Z</time>
      </trkpt>
      <trkpt lat="48.28887" lon="6.99312">
        <ele>427.44</ele>
        <time>2018-02-08T14:35:09Z</time>
      </trkpt>
      <trkpt lat="48.28888" lon="6.99316">
        <ele>426.96</ele>
        <time>2018-02-08T14:35:22Z</time>
      </trkpt>
      <trkpt lat="48.28887" lon="6.99318">
        <ele>428.4</ele>
        <time>2018-02-08T14:35:55Z</time>
      </trkpt>
      <trkpt lat="48.28888" lon="6.99318">
        <ele>430.33</ele>
        <time>2018-02-08T14:36:19Z</time>
      </trkpt>
      <trkpt lat="48.28884" lon="6.99315">
        <ele>428.89</ele>
        <time>2018-02-08T14:36:43Z</time>
      </trkpt>
      <trkpt lat="48.28883" lon="6.99319">
        <ele>431.29</ele>
        <time>2018-02-08T14:36:56Z</time>
      </trkpt>
      <trkpt lat="48.28884" lon="6.99314">
        <ele>434.17</ele>
        <time>2018-02-08T14:37:33Z</time>
      </trkpt>
      <trkpt lat="48.28885" lon="6.99315">
        <ele>433.21</ele>
        <time>2018-02-08T14:38:00Z</time>
      </trkpt>
      <trkpt lat="48.28884" lon="6.99317">
        <ele>433.69</ele>
        <time>2018-02-08T14:38:22Z</time>
      </trkpt>
      <trkpt lat="48.28883" lon="6.99319">
        <ele>431.77</ele>
        <time>2018-02-08T14:38:40Z</time>
      </trkpt>
      <trkpt lat="48.28882" lon="6.9932">
        <ele>433.69</ele>
        <time>2018-02-08T14:39:06Z</time>
      </trkpt>
      <trkpt lat="48.28879" lon="6.99321">
        <ele>433.21</ele>
        <time>2018-02-08T14:39:24Z</time>
      </trkpt>
      <trkpt lat="48.28879" lon="6.99322">
        <ele>433.69</ele>
        <time>2018-02-08T14:39:26Z</time>
      </trkpt>
      <trkpt lat="48.28874" lon="6.99322">
        <ele>432.25</ele>
        <time>2018-02-08T14:39:30Z</time>
      </trkpt>
      <trkpt lat="48.28856" lon="6.99332">
        <ele>431.29</ele>
        <time>2018-02-08T14:39:45Z</time>
      </trkpt>
      <trkpt lat="48.28839" lon="6.99341">
        <ele>428.89</ele>
        <time>2018-02-08T14:40:02Z</time>
      </trkpt>
      <trkpt lat="48.28822" lon="6.99348">
        <ele>428.4</ele>
        <time>2018-02-08T14:40:17Z</time>
      </trkpt>
      <trkpt lat="48.28802" lon="6.99356">
        <ele>426</ele>
        <time>2018-02-08T14:40:33Z</time>
      </trkpt>
      <trkpt lat="48.28786" lon="6.99369">
        <ele>424.08</ele>
        <time>2018-02-08T14:40:48Z</time>
      </trkpt>
      <trkpt lat="48.28774" lon="6.99387">
        <ele>421.68</ele>
        <time>2018-02-08T14:41:02Z</time>
      </trkpt>
      <trkpt lat="48.28762" lon="6.99408">
        <ele>421.19</ele>
        <time>2018-02-08T14:41:18Z</time>
      </trkpt>
      <trkpt lat="48.2875" lon="6.99421">
        <ele>421.19</ele>
        <time>2018-02-08T14:41:29Z</time>
      </trkpt>
      <trkpt lat="48.28732" lon="6.99423">
        <ele>420.23</ele>
        <time>2018-02-08T14:41:44Z</time>
      </trkpt>
      <trkpt lat="48.28715" lon="6.99423">
        <ele>418.79</ele>
        <time>2018-02-08T14:41:59Z</time>
      </trkpt>
      <trkpt lat="48.28707" lon="6.99421">
        <ele>417.35</ele>
        <time>2018-02-08T14:42:13Z</time>
      </trkpt>
      <trkpt lat="48.287" lon="6.99427">
        <ele>416.39</ele>
        <time>2018-02-08T14:42:22Z</time>
      </trkpt>
      <trkpt lat="48.287" lon="6.99433">
        <ele>414.95</ele>
        <time>2018-02-08T14:42:27Z</time>
      </trkpt>
      <trkpt lat="48.28699" lon="6.99436">
        <ele>414.95</ele>
        <time>2018-02-08T14:42:29Z</time>
      </trkpt>
      <trkpt lat="48.28699" lon="6.99451">
        <ele>412.54</ele>
        <time>2018-02-08T14:42:38Z</time>
      </trkpt>
      <trkpt lat="48.28699" lon="6.99459">
        <ele>412.54</ele>
        <time>2018-02-08T14:42:42Z</time>
      </trkpt>
      <trkpt lat="48.28695" lon="6.99488">
        <ele>408.7</ele>
        <time>2018-02-08T14:43:01Z</time>
      </trkpt>
      <trkpt lat="48.28687" lon="6.9951">
        <ele>408.22</ele>
        <time>2018-02-08T14:43:15Z</time>
      </trkpt>
      <trkpt lat="48.28685" lon="6.99537">
        <ele>405.81</ele>
        <time>2018-02-08T14:43:31Z</time>
      </trkpt>
      <trkpt lat="48.28684" lon="6.99566">
        <ele>404.85</ele>
        <time>2018-02-08T14:43:47Z</time>
      </trkpt>
      <trkpt lat="48.28681" lon="6.99599">
        <ele>404.85</ele>
        <time>2018-02-08T14:44:05Z</time>
      </trkpt>
      <trkpt lat="48.28679" lon="6.99621">
        <ele>405.33</ele>
        <time>2018-02-08T14:44:18Z</time>
      </trkpt>
      <trkpt lat="48.28663" lon="6.9964">
        <ele>406.29</ele>
        <time>2018-02-08T14:44:34Z</time>
      </trkpt>
      <trkpt lat="48.2864" lon="6.9966">
        <ele>408.22</ele>
        <time>2018-02-08T14:44:54Z</time>
      </trkpt>
      <trkpt lat="48.28625" lon="6.99678">
        <ele>406.77</ele>
        <time>2018-02-08T14:45:11Z</time>
      </trkpt>
      <trkpt lat="48.28609" lon="6.99699">
        <ele>404.85</ele>
        <time>2018-02-08T14:45:29Z</time>
      </trkpt>
      <trkpt lat="48.28593" lon="6.99706">
        <ele>404.37</ele>
        <time>2018-02-08T14:45:43Z</time>
      </trkpt>
      <trkpt lat="48.2857" lon="6.99709">
        <ele>402.45</ele>
        <time>2018-02-08T14:46:01Z</time>
      </trkpt>
      <trkpt lat="48.28549" lon="6.99707">
        <ele>403.89</ele>
        <time>2018-02-08T14:46:19Z</time>
      </trkpt>
      <trkpt lat="48.2853" lon="6.99703">
        <ele>405.33</ele>
        <time>2018-02-08T14:46:37Z</time>
      </trkpt>
      <trkpt lat="48.28516" lon="6.99702">
        <ele>407.26</ele>
        <time>2018-02-08T14:46:52Z</time>
      </trkpt>
      <trkpt lat="48.2851" lon="6.99703">
        <ele>406.77</ele>
        <time>2018-02-08T14:47:06Z</time>
      </trkpt>
      <trkpt lat="48.28502" lon="6.99707">
        <ele>406.77</ele>
        <time>2018-02-08T14:47:17Z</time>
      </trkpt>
      <trkpt lat="48.28495" lon="6.99717">
        <ele>406.77</ele>
        <time>2018-02-08T14:47:30Z</time>
      </trkpt>
      <trkpt lat="48.28489" lon="6.99732">
        <ele>407.74</ele>
        <time>2018-02-08T14:47:44Z</time>
      </trkpt>
      <trkpt lat="48.28484" lon="6.99747">
        <ele>408.7</ele>
        <time>2018-02-08T14:47:57Z</time>
      </trkpt>
      <trkpt lat="48.28479" lon="6.9976">
        <ele>411.1</ele>
        <time>2018-02-08T14:48:09Z</time>
      </trkpt>
      <trkpt lat="48.28478" lon="6.99764">
        <ele>411.58</ele>
        <time>2018-02-08T14:48:12Z</time>
      </trkpt>
      <trkpt lat="48.28473" lon="6.99782">
        <ele>412.54</ele>
        <time>2018-02-08T14:48:26Z</time>
      </trkpt>
      <trkpt lat="48.28472" lon="6.99797">
        <ele>413.5</ele>
        <time>2018-02-08T14:48:39Z</time>
      </trkpt>
      <trkpt lat="48.2847" lon="6.99813">
        <ele>413.02</ele>
        <time>2018-02-08T14:48:53Z</time>
      </trkpt>
      <trkpt lat="48.28471" lon="6.99822">
        <ele>414.95</ele>
        <time>2018-02-08T14:49:00Z</time>
      </trkpt>
      <trkpt lat="48.28475" lon="6.99832">
        <ele>413.5</ele>
        <time>2018-02-08T14:49:10Z</time>
      </trkpt>
      <trkpt lat="48.28489" lon="6.99857">
        <ele>416.87</ele>
        <time>2018-02-08T14:49:29Z</time>
      </trkpt>
      <trkpt lat="48.28492" lon="6.99877">
        <ele>419.27</ele>
        <time>2018-02-08T14:49:41Z</time>
      </trkpt>
      <trkpt lat="48.28504" lon="6.99896">
        <ele>420.71</ele>
        <time>2018-02-08T14:49:57Z</time>
      </trkpt>
      <trkpt lat="48.28514" lon="6.99915">
        <ele>421.68</ele>
        <time>2018-02-08T14:50:11Z</time>
      </trkpt>
      <trkpt lat="48.28524" lon="6.99934">
        <ele>419.27</ele>
        <time>2018-02-08T14:50:27Z</time>
      </trkpt>
      <trkpt lat="48.28531" lon="6.99948">
        <ele>420.23</ele>
        <time>2018-02-08T14:50:38Z</time>
      </trkpt>
      <trkpt lat="48.2854" lon="6.99972">
        <ele>420.71</ele>
        <time>2018-02-08T14:50:53Z</time>
      </trkpt>
      <trkpt lat="48.28546" lon="6.99981">
        <ele>417.83</ele>
        <time>2018-02-08T14:51:06Z</time>
      </trkpt>
      <trkpt lat="48.28557" lon="7.00007">
        <ele>418.79</ele>
        <time>2018-02-08T14:51:22Z</time>
      </trkpt>
      <trkpt lat="48.28562" lon="7.00011">
        <ele>418.31</ele>
        <time>2018-02-08T14:51:28Z</time>
      </trkpt>
      <trkpt lat="48.28566" lon="7.00016">
        <ele>419.27</ele>
        <time>2018-02-08T14:51:32Z</time>
      </trkpt>
      <trkpt lat="48.28582" lon="7.00037">
        <ele>421.19</ele>
        <time>2018-02-08T14:51:48Z</time>
      </trkpt>
      <trkpt lat="48.28591" lon="7.00053">
        <ele>418.79</ele>
        <time>2018-02-08T14:52:03Z</time>
      </trkpt>
      <trkpt lat="48.28594" lon="7.00064">
        <ele>408.7</ele>
        <time>2018-02-08T14:52:16Z</time>
      </trkpt>
      <trkpt lat="48.28605" lon="7.00081">
        <ele>408.7</ele>
        <time>2018-02-08T14:52:32Z</time>
      </trkpt>
      <trkpt lat="48.28613" lon="7.00098">
        <ele>411.1</ele>
        <time>2018-02-08T14:52:45Z</time>
      </trkpt>
      <trkpt lat="48.28626" lon="7.00118">
        <ele>413.98</ele>
        <time>2018-02-08T14:53:01Z</time>
      </trkpt>
      <trkpt lat="48.28638" lon="7.00135">
        <ele>412.54</ele>
        <time>2018-02-08T14:53:16Z</time>
      </trkpt>
      <trkpt lat="48.28642" lon="7.00143">
        <ele>413.98</ele>
        <time>2018-02-08T14:53:22Z</time>
      </trkpt>
      <trkpt lat="48.28654" lon="7.00167">
        <ele>418.79</ele>
        <time>2018-02-08T14:53:39Z</time>
      </trkpt>
      <trkpt lat="48.28662" lon="7.00185">
        <ele>424.08</ele>
        <time>2018-02-08T14:53:53Z</time>
      </trkpt>
      <trkpt lat="48.28669" lon="7.002">
        <ele>426</ele>
        <time>2018-02-08T14:54:06Z</time>
      </trkpt>
      <trkpt lat="48.28676" lon="7.0021">
        <ele>428.4</ele>
        <time>2018-02-08T14:54:19Z</time>
      </trkpt>
      <trkpt lat="48.28676" lon="7.00211">
        <ele>426.96</ele>
        <time>2018-02-08T14:54:40Z</time>
      </trkpt>
      <trkpt lat="48.28672" lon="7.00216">
        <ele>426.96</ele>
        <time>2018-02-08T14:55:05Z</time>
      </trkpt>
      <trkpt lat="48.28671" lon="7.00217">
        <ele>432.25</ele>
        <time>2018-02-08T14:55:33Z</time>
      </trkpt>
      <trkpt lat="48.28669" lon="7.00212">
        <ele>434.17</ele>
        <time>2018-02-08T14:55:50Z</time>
      </trkpt>
      <trkpt lat="48.28674" lon="7.00213">
        <ele>440.42</ele>
        <time>2018-02-08T14:56:17Z</time>
      </trkpt>
      <trkpt lat="48.28676" lon="7.00214">
        <ele>439.94</ele>
        <time>2018-02-08T14:56:37Z</time>
      </trkpt>
      <trkpt lat="48.28675" lon="7.00221">
        <ele>441.38</ele>
        <time>2018-02-08T14:56:52Z</time>
      </trkpt>
      <trkpt lat="48.28676" lon="7.00224">
        <ele>438.5</ele>
        <time>2018-02-08T14:57:14Z</time>
      </trkpt>
      <trkpt lat="48.28679" lon="7.00236">
        <ele>436.58</ele>
        <time>2018-02-08T14:57:28Z</time>
      </trkpt>
      <trkpt lat="48.28679" lon="7.00238">
        <ele>437.06</ele>
        <time>2018-02-08T14:57:47Z</time>
      </trkpt>
      <trkpt lat="48.28679" lon="7.0024">
        <ele>433.21</ele>
        <time>2018-02-08T14:58:02Z</time>
      </trkpt>
      <trkpt lat="48.28675" lon="7.00242">
        <ele>432.73</ele>
        <time>2018-02-08T14:58:20Z</time>
      </trkpt>
      <trkpt lat="48.28677" lon="7.00252">
        <ele>430.81</ele>
        <time>2018-02-08T14:58:32Z</time>
      </trkpt>
      <trkpt lat="48.28683" lon="7.00261">
        <ele>427.92</ele>
        <time>2018-02-08T14:58:43Z</time>
      </trkpt>
      <trkpt lat="48.28688" lon="7.00281">
        <ele>425.04</ele>
        <time>2018-02-08T14:58:57Z</time>
      </trkpt>
      <trkpt lat="48.28689" lon="7.00295">
        <ele>423.12</ele>
        <time>2018-02-08T14:59:11Z</time>
      </trkpt>
      <trkpt lat="48.28686" lon="7.00304">
        <ele>421.68</ele>
        <time>2018-02-08T14:59:25Z</time>
      </trkpt>
      <trkpt lat="48.28688" lon="7.00313">
        <ele>416.87</ele>
        <time>2018-02-08T14:59:37Z</time>
      </trkpt>
      <trkpt lat="48.28689" lon="7.00322">
        <ele>415.43</ele>
        <time>2018-02-08T14:59:58Z</time>
      </trkpt>
      <trkpt lat="48.2869" lon="7.00324">
        <ele>416.87</ele>
        <time>2018-02-08T15:00:16Z</time>
      </trkpt>
      <trkpt lat="48.28691" lon="7.00333">
        <ele>413.5</ele>
        <time>2018-02-08T15:00:29Z</time>
      </trkpt>
      <trkpt lat="48.28687" lon="7.0034">
        <ele>412.54</ele>
        <time>2018-02-08T15:00:42Z</time>
      </trkpt>
      <trkpt lat="48.28691" lon="7.0035">
        <ele>412.54</ele>
        <time>2018-02-08T15:00:55Z</time>
      </trkpt>
      <trkpt lat="48.2869" lon="7.00353">
        <ele>409.66</ele>
        <time>2018-02-08T15:01:08Z</time>
      </trkpt>
      <trkpt lat="48.28692" lon="7.00362">
        <ele>412.54</ele>
        <time>2018-02-08T15:01:23Z</time>
      </trkpt>
      <trkpt lat="48.28693" lon="7.00371">
        <ele>413.5</ele>
        <time>2018-02-08T15:01:36Z</time>
      </trkpt>
      <trkpt lat="48.28693" lon="7.00376">
        <ele>413.5</ele>
        <time>2018-02-08T15:01:49Z</time>
      </trkpt>
      <trkpt lat="48.28689" lon="7.00379">
        <ele>413.02</ele>
        <time>2018-02-08T15:02:04Z</time>
      </trkpt>
      <trkpt lat="48.28686" lon="7.00388">
        <ele>413.98</ele>
        <time>2018-02-08T15:02:22Z</time>
      </trkpt>
      <trkpt lat="48.28688" lon="7.00394">
        <ele>408.7</ele>
        <time>2018-02-08T15:02:35Z</time>
      </trkpt>
      <trkpt lat="48.28687" lon="7.00403">
        <ele>407.74</ele>
        <time>2018-02-08T15:02:49Z</time>
      </trkpt>
      <trkpt lat="48.28687" lon="7.0041">
        <ele>407.26</ele>
        <time>2018-02-08T15:03:09Z</time>
      </trkpt>
      <trkpt lat="48.28696" lon="7.00419">
        <ele>405.33</ele>
        <time>2018-02-08T15:03:23Z</time>
      </trkpt>
      <trkpt lat="48.28701" lon="7.00424">
        <ele>404.85</ele>
        <time>2018-02-08T15:03:36Z</time>
      </trkpt>
      <trkpt lat="48.28713" lon="7.00433">
        <ele>405.81</ele>
        <time>2018-02-08T15:03:49Z</time>
      </trkpt>
      <trkpt lat="48.28718" lon="7.00447">
        <ele>404.85</ele>
        <time>2018-02-08T15:04:06Z</time>
      </trkpt>
      <trkpt lat="48.28716" lon="7.00456">
        <ele>404.85</ele>
        <time>2018-02-08T15:04:19Z</time>
      </trkpt>
      <trkpt lat="48.28715" lon="7.00472">
        <ele>406.77</ele>
        <time>2018-02-08T15:04:31Z</time>
      </trkpt>
      <trkpt lat="48.2871" lon="7.00488">
        <ele>409.18</ele>
        <time>2018-02-08T15:04:42Z</time>
      </trkpt>
      <trkpt lat="48.28711" lon="7.00501">
        <ele>411.1</ele>
        <time>2018-02-08T15:04:54Z</time>
      </trkpt>
      <trkpt lat="48.28711" lon="7.00502">
        <ele>411.58</ele>
        <time>2018-02-08T15:04:55Z</time>
      </trkpt>
      <trkpt lat="48.28702" lon="7.00514">
        <ele>410.14</ele>
        <time>2018-02-08T15:05:07Z</time>
      </trkpt>
      <trkpt lat="48.28697" lon="7.00532">
        <ele>409.66</ele>
        <time>2018-02-08T15:05:23Z</time>
      </trkpt>
      <trkpt lat="48.28697" lon="7.00539">
        <ele>404.85</ele>
        <time>2018-02-08T15:05:36Z</time>
      </trkpt>
      <trkpt lat="48.28698" lon="7.00547">
        <ele>405.81</ele>
        <time>2018-02-08T15:05:50Z</time>
      </trkpt>
      <trkpt lat="48.28686" lon="7.00561">
        <ele>406.77</ele>
        <time>2018-02-08T15:06:01Z</time>
      </trkpt>
      <trkpt lat="48.28686" lon="7.00568">
        <ele>405.33</ele>
        <time>2018-02-08T15:06:14Z</time>
      </trkpt>
      <trkpt lat="48.28693" lon="7.00579">
        <ele>403.89</ele>
        <time>2018-02-08T15:06:27Z</time>
      </trkpt>
      <trkpt lat="48.28697" lon="7.00582">
        <ele>397.16</ele>
        <time>2018-02-08T15:06:39Z</time>
      </trkpt>
      <trkpt lat="48.28706" lon="7.00585">
        <ele>390.91</ele>
        <time>2018-02-08T15:06:52Z</time>
      </trkpt>
      <trkpt lat="48.28717" lon="7.00592">
        <ele>391.39</ele>
        <time>2018-02-08T15:07:07Z</time>
      </trkpt>
      <trkpt lat="48.28722" lon="7.00595">
        <ele>389.95</ele>
        <time>2018-02-08T15:07:20Z</time>
      </trkpt>
      <trkpt lat="48.28727" lon="7.006">
        <ele>388.51</ele>
        <time>2018-02-08T15:07:33Z</time>
      </trkpt>
      <trkpt lat="48.28735" lon="7.00609">
        <ele>389.95</ele>
        <time>2018-02-08T15:07:47Z</time>
      </trkpt>
      <trkpt lat="48.28741" lon="7.00606">
        <ele>389.47</ele>
        <time>2018-02-08T15:07:59Z</time>
      </trkpt>
      <trkpt lat="48.28745" lon="7.00611">
        <ele>389.95</ele>
        <time>2018-02-08T15:08:10Z</time>
      </trkpt>
      <trkpt lat="48.28751" lon="7.00608">
        <ele>389.47</ele>
        <time>2018-02-08T15:08:23Z</time>
      </trkpt>
      <trkpt lat="48.28766" lon="7.00625">
        <ele>393.32</ele>
        <time>2018-02-08T15:08:41Z</time>
      </trkpt>
      <trkpt lat="48.2876" lon="7.00625">
        <ele>394.28</ele>
        <time>2018-02-08T15:09:08Z</time>
      </trkpt>
      <trkpt lat="48.2875" lon="7.00624">
        <ele>391.39</ele>
        <time>2018-02-08T15:09:36Z</time>
      </trkpt>
      <trkpt lat="48.28756" lon="7.0063">
        <ele>395.24</ele>
        <time>2018-02-08T15:09:54Z</time>
      </trkpt>
      <trkpt lat="48.28767" lon="7.00639">
        <ele>393.8</ele>
        <time>2018-02-08T15:10:07Z</time>
      </trkpt>
      <trkpt lat="48.2877" lon="7.00649">
        <ele>394.28</ele>
        <time>2018-02-08T15:10:21Z</time>
      </trkpt>
      <trkpt lat="48.28776" lon="7.00662">
        <ele>400.53</ele>
        <time>2018-02-08T15:10:42Z</time>
      </trkpt>
      <trkpt lat="48.28778" lon="7.00671">
        <ele>400.53</ele>
        <time>2018-02-08T15:11:03Z</time>
      </trkpt>
      <trkpt lat="48.28775" lon="7.00679">
        <ele>399.57</ele>
        <time>2018-02-08T15:11:22Z</time>
      </trkpt>
      <trkpt lat="48.28772" lon="7.00686">
        <ele>401.49</ele>
        <time>2018-02-08T15:11:42Z</time>
      </trkpt>
      <trkpt lat="48.28768" lon="7.00692">
        <ele>401.97</ele>
        <time>2018-02-08T15:11:58Z</time>
      </trkpt>
      <trkpt lat="48.28761" lon="7.00693">
        <ele>401.97</ele>
        <time>2018-02-08T15:12:15Z</time>
      </trkpt>
      <trkpt lat="48.28758" lon="7.00701">
        <ele>401.01</ele>
        <time>2018-02-08T15:12:29Z</time>
      </trkpt>
      <trkpt lat="48.28758" lon="7.0071">
        <ele>401.97</ele>
        <time>2018-02-08T15:12:45Z</time>
      </trkpt>
      <trkpt lat="48.28753" lon="7.0072">
        <ele>402.45</ele>
        <time>2018-02-08T15:12:57Z</time>
      </trkpt>
      <trkpt lat="48.28749" lon="7.00726">
        <ele>403.89</ele>
        <time>2018-02-08T15:13:07Z</time>
      </trkpt>
      <trkpt lat="48.28746" lon="7.00732">
        <ele>405.33</ele>
        <time>2018-02-08T15:13:19Z</time>
      </trkpt>
      <trkpt lat="48.28742" lon="7.00742">
        <ele>404.85</ele>
        <time>2018-02-08T15:13:34Z</time>
      </trkpt>
      <trkpt lat="48.28743" lon="7.00752">
        <ele>403.89</ele>
        <time>2018-02-08T15:13:51Z</time>
      </trkpt>
      <trkpt lat="48.28746" lon="7.00761">
        <ele>404.37</ele>
        <time>2018-02-08T15:14:07Z</time>
      </trkpt>
      <trkpt lat="48.28746" lon="7.00772">
        <ele>404.85</ele>
        <time>2018-02-08T15:14:25Z</time>
      </trkpt>
      <trkpt lat="48.28745" lon="7.00781">
        <ele>407.26</ele>
        <time>2018-02-08T15:14:39Z</time>
      </trkpt>
      <trkpt lat="48.28743" lon="7.00784">
        <ele>411.1</ele>
        <time>2018-02-08T15:14:55Z</time>
      </trkpt>
      <trkpt lat="48.28743" lon="7.00796">
        <ele>413.98</ele>
        <time>2018-02-08T15:15:13Z</time>
      </trkpt>
      <trkpt lat="48.28746" lon="7.00799">
        <ele>413.5</ele>
        <time>2018-02-08T15:15:27Z</time>
      </trkpt>
      <trkpt lat="48.28743" lon="7.00797">
        <ele>415.91</ele>
        <time>2018-02-08T15:15:38Z</time>
      </trkpt>
      <trkpt lat="48.28744" lon="7.00796">
        <ele>414.95</ele>
        <time>2018-02-08T15:15:57Z</time>
      </trkpt>
      <trkpt lat="48.28748" lon="7.00792">
        <ele>417.35</ele>
        <time>2018-02-08T15:16:11Z</time>
      </trkpt>
      <trkpt lat="48.28759" lon="7.00798">
        <ele>419.27</ele>
        <time>2018-02-08T15:16:22Z</time>
      </trkpt>
      <trkpt lat="48.28764" lon="7.00806">
        <ele>421.68</ele>
        <time>2018-02-08T15:16:37Z</time>
      </trkpt>
      <trkpt lat="48.28767" lon="7.00813">
        <ele>420.23</ele>
        <time>2018-02-08T15:17:01Z</time>
      </trkpt>
      <trkpt lat="48.28767" lon="7.00828">
        <ele>421.68</ele>
        <time>2018-02-08T15:17:18Z</time>
      </trkpt>
      <trkpt lat="48.28768" lon="7.00837">
        <ele>423.12</ele>
        <time>2018-02-08T15:17:33Z</time>
      </trkpt>
      <trkpt lat="48.28772" lon="7.0085">
        <ele>424.56</ele>
        <time>2018-02-08T15:17:48Z</time>
      </trkpt>
      <trkpt lat="48.28777" lon="7.00858">
        <ele>426</ele>
        <time>2018-02-08T15:18:04Z</time>
      </trkpt>
      <trkpt lat="48.28779" lon="7.00862">
        <ele>426.96</ele>
        <time>2018-02-08T15:18:17Z</time>
      </trkpt>
      <trkpt lat="48.28778" lon="7.00868">
        <ele>428.4</ele>
        <time>2018-02-08T15:18:40Z</time>
      </trkpt>
      <trkpt lat="48.28782" lon="7.00866">
        <ele>431.29</ele>
        <time>2018-02-08T15:19:05Z</time>
      </trkpt>
      <trkpt lat="48.28781" lon="7.00867">
        <ele>432.73</ele>
        <time>2018-02-08T15:19:22Z</time>
      </trkpt>
      <trkpt lat="48.28781" lon="7.00867">
        <ele>434.65</ele>
        <time>2018-02-08T15:19:40Z</time>
      </trkpt>
      <trkpt lat="48.2878" lon="7.00862">
        <ele>440.42</ele>
        <time>2018-02-08T15:20:12Z</time>
      </trkpt>
      <trkpt lat="48.28781" lon="7.00876">
        <ele>439.46</ele>
        <time>2018-02-08T15:20:27Z</time>
      </trkpt>
      <trkpt lat="48.28782" lon="7.0089">
        <ele>437.54</ele>
        <time>2018-02-08T15:20:39Z</time>
      </trkpt>
      <trkpt lat="48.28785" lon="7.00909">
        <ele>436.1</ele>
        <time>2018-02-08T15:20:52Z</time>
      </trkpt>
      <trkpt lat="48.28791" lon="7.00921">
        <ele>436.1</ele>
        <time>2018-02-08T15:21:05Z</time>
      </trkpt>
      <trkpt lat="48.28798" lon="7.00923">
        <ele>438.02</ele>
        <time>2018-02-08T15:21:18Z</time>
      </trkpt>
      <trkpt lat="48.28804" lon="7.00933">
        <ele>436.58</ele>
        <time>2018-02-08T15:21:34Z</time>
      </trkpt>
      <trkpt lat="48.28811" lon="7.00942">
        <ele>438.98</ele>
        <time>2018-02-08T15:21:47Z</time>
      </trkpt>
      <trkpt lat="48.2882" lon="7.00951">
        <ele>439.46</ele>
        <time>2018-02-08T15:21:59Z</time>
      </trkpt>
      <trkpt lat="48.2883" lon="7.00959">
        <ele>440.9</ele>
        <time>2018-02-08T15:22:12Z</time>
      </trkpt>
      <trkpt lat="48.28838" lon="7.00969">
        <ele>441.86</ele>
        <time>2018-02-08T15:22:26Z</time>
      </trkpt>
      <trkpt lat="48.28842" lon="7.00978">
        <ele>441.86</ele>
        <time>2018-02-08T15:22:34Z</time>
      </trkpt>
      <trkpt lat="48.28851" lon="7.00987">
        <ele>441.86</ele>
        <time>2018-02-08T15:22:45Z</time>
      </trkpt>
      <trkpt lat="48.28856" lon="7.00997">
        <ele>444.75</ele>
        <time>2018-02-08T15:22:56Z</time>
      </trkpt>
      <trkpt lat="48.28862" lon="7.01006">
        <ele>444.75</ele>
        <time>2018-02-08T15:23:06Z</time>
      </trkpt>
      <trkpt lat="48.28873" lon="7.01022">
        <ele>447.15</ele>
        <time>2018-02-08T15:23:19Z</time>
      </trkpt>
      <trkpt lat="48.28879" lon="7.01031">
        <ele>447.63</ele>
        <time>2018-02-08T15:23:30Z</time>
      </trkpt>
      <trkpt lat="48.28888" lon="7.01042">
        <ele>448.59</ele>
        <time>2018-02-08T15:23:43Z</time>
      </trkpt>
      <trkpt lat="48.28891" lon="7.0106">
        <ele>448.59</ele>
        <time>2018-02-08T15:23:58Z</time>
      </trkpt>
      <trkpt lat="48.28893" lon="7.01081">
        <ele>448.11</ele>
        <time>2018-02-08T15:24:11Z</time>
      </trkpt>
      <trkpt lat="48.28894" lon="7.01098">
        <ele>448.11</ele>
        <time>2018-02-08T15:24:23Z</time>
      </trkpt>
      <trkpt lat="48.28902" lon="7.01117">
        <ele>447.63</ele>
        <time>2018-02-08T15:24:36Z</time>
      </trkpt>
      <trkpt lat="48.28902" lon="7.01133">
        <ele>450.52</ele>
        <time>2018-02-08T15:24:49Z</time>
      </trkpt>
      <trkpt lat="48.28907" lon="7.01147">
        <ele>450.03</ele>
        <time>2018-02-08T15:25:03Z</time>
      </trkpt>
      <trkpt lat="48.2891" lon="7.01162">
        <ele>451</ele>
        <time>2018-02-08T15:25:17Z</time>
      </trkpt>
      <trkpt lat="48.2891" lon="7.0117">
        <ele>451</ele>
        <time>2018-02-08T15:25:24Z</time>
      </trkpt>
      <trkpt lat="48.28918" lon="7.0119">
        <ele>450.52</ele>
        <time>2018-02-08T15:25:38Z</time>
      </trkpt>
      <trkpt lat="48.28924" lon="7.01204">
        <ele>449.07</ele>
        <time>2018-02-08T15:25:51Z</time>
      </trkpt>
      <trkpt lat="48.28926" lon="7.01207">
        <ele>449.55</ele>
        <time>2018-02-08T15:26:03Z</time>
      </trkpt>
      <trkpt lat="48.28928" lon="7.01212">
        <ele>448.59</ele>
        <time>2018-02-08T15:26:15Z</time>
      </trkpt>
      <trkpt lat="48.28931" lon="7.01219">
        <ele>448.59</ele>
        <time>2018-02-08T15:26:26Z</time>
      </trkpt>
      <trkpt lat="48.28935" lon="7.01228">
        <ele>448.11</ele>
        <time>2018-02-08T15:26:37Z</time>
      </trkpt>
      <trkpt lat="48.28939" lon="7.01235">
        <ele>443.79</ele>
        <time>2018-02-08T15:26:51Z</time>
      </trkpt>
      <trkpt lat="48.28942" lon="7.01246">
        <ele>444.75</ele>
        <time>2018-02-08T15:27:04Z</time>
      </trkpt>
      <trkpt lat="48.2894" lon="7.01254">
        <ele>444.27</ele>
        <time>2018-02-08T15:27:14Z</time>
      </trkpt>
      <trkpt lat="48.28947" lon="7.01265">
        <ele>447.15</ele>
        <time>2018-02-08T15:27:28Z</time>
      </trkpt>
      <trkpt lat="48.28956" lon="7.01277">
        <ele>448.59</ele>
        <time>2018-02-08T15:27:41Z</time>
      </trkpt>
      <trkpt lat="48.28966" lon="7.01291">
        <ele>448.59</ele>
        <time>2018-02-08T15:27:54Z</time>
      </trkpt>
      <trkpt lat="48.28976" lon="7.0131">
        <ele>449.07</ele>
        <time>2018-02-08T15:28:09Z</time>
      </trkpt>
      <trkpt lat="48.28984" lon="7.01325">
        <ele>449.55</ele>
        <time>2018-02-08T15:28:24Z</time>
      </trkpt>
      <trkpt lat="48.28984" lon="7.01336">
        <ele>448.59</ele>
        <time>2018-02-08T15:28:37Z</time>
      </trkpt>
      <trkpt lat="48.28977" lon="7.0134">
        <ele>444.27</ele>
        <time>2018-02-08T15:29:08Z</time>
      </trkpt>
      <trkpt lat="48.28977" lon="7.01337">
        <ele>444.75</ele>
        <time>2018-02-08T15:29:33Z</time>
      </trkpt>
      <trkpt lat="48.28978" lon="7.01337">
        <ele>445.23</ele>
        <time>2018-02-08T15:29:35Z</time>
      </trkpt>
      <trkpt lat="48.28984" lon="7.0134">
        <ele>446.19</ele>
        <time>2018-02-08T15:29:42Z</time>
      </trkpt>
      <trkpt lat="48.28996" lon="7.01344">
        <ele>448.59</ele>
        <time>2018-02-08T15:29:54Z</time>
      </trkpt>
      <trkpt lat="48.29019" lon="7.01353">
        <ele>450.52</ele>
        <time>2018-02-08T15:30:08Z</time>
      </trkpt>
      <trkpt lat="48.29031" lon="7.01356">
        <ele>450.03</ele>
        <time>2018-02-08T15:30:20Z</time>
      </trkpt>
      <trkpt lat="48.29036" lon="7.01357">
        <ele>448.59</ele>
        <time>2018-02-08T15:30:27Z</time>
      </trkpt>
      <trkpt lat="48.29049" lon="7.0136">
        <ele>447.63</ele>
        <time>2018-02-08T15:30:39Z</time>
      </trkpt>
      <trkpt lat="48.2906" lon="7.01369">
        <ele>446.19</ele>
        <time>2018-02-08T15:30:53Z</time>
      </trkpt>
      <trkpt lat="48.29063" lon="7.01365">
        <ele>446.67</ele>
        <time>2018-02-08T15:31:05Z</time>
      </trkpt>
      <trkpt lat="48.29078" lon="7.01366">
        <ele>448.11</ele>
        <time>2018-02-08T15:31:18Z</time>
      </trkpt>
      <trkpt lat="48.29094" lon="7.01368">
        <ele>447.15</ele>
        <time>2018-02-08T15:31:32Z</time>
      </trkpt>
      <trkpt lat="48.29106" lon="7.01371">
        <ele>445.23</ele>
        <time>2018-02-08T15:31:45Z</time>
      </trkpt>
      <trkpt lat="48.2912" lon="7.0137">
        <ele>443.79</ele>
        <time>2018-02-08T15:31:58Z</time>
      </trkpt>
      <trkpt lat="48.29136" lon="7.01374">
        <ele>442.82</ele>
        <time>2018-02-08T15:32:13Z</time>
      </trkpt>
      <trkpt lat="48.29148" lon="7.01377">
        <ele>442.34</ele>
        <time>2018-02-08T15:32:25Z</time>
      </trkpt>
      <trkpt lat="48.29159" lon="7.01384">
        <ele>443.31</ele>
        <time>2018-02-08T15:32:39Z</time>
      </trkpt>
      <trkpt lat="48.29173" lon="7.01398">
        <ele>442.34</ele>
        <time>2018-02-08T15:32:53Z</time>
      </trkpt>
      <trkpt lat="48.29184" lon="7.01412">
        <ele>442.82</ele>
        <time>2018-02-08T15:33:04Z</time>
      </trkpt>
      <trkpt lat="48.29194" lon="7.01424">
        <ele>443.31</ele>
        <time>2018-02-08T15:33:16Z</time>
      </trkpt>
      <trkpt lat="48.29206" lon="7.01438">
        <ele>440.9</ele>
        <time>2018-02-08T15:33:30Z</time>
      </trkpt>
      <trkpt lat="48.29222" lon="7.01456">
        <ele>442.34</ele>
        <time>2018-02-08T15:33:45Z</time>
      </trkpt>
      <trkpt lat="48.2923" lon="7.01467">
        <ele>443.31</ele>
        <time>2018-02-08T15:33:55Z</time>
      </trkpt>
      <trkpt lat="48.29239" lon="7.01481">
        <ele>443.79</ele>
        <time>2018-02-08T15:34:06Z</time>
      </trkpt>
      <trkpt lat="48.29251" lon="7.01499">
        <ele>445.71</ele>
        <time>2018-02-08T15:34:21Z</time>
      </trkpt>
      <trkpt lat="48.29261" lon="7.0151">
        <ele>445.23</ele>
        <time>2018-02-08T15:34:32Z</time>
      </trkpt>
      <trkpt lat="48.29268" lon="7.01525">
        <ele>444.75</ele>
        <time>2018-02-08T15:34:43Z</time>
      </trkpt>
      <trkpt lat="48.29276" lon="7.01543">
        <ele>444.27</ele>
        <time>2018-02-08T15:34:58Z</time>
      </trkpt>
      <trkpt lat="48.29283" lon="7.01564">
        <ele>446.19</ele>
        <time>2018-02-08T15:35:13Z</time>
      </trkpt>
      <trkpt lat="48.29289" lon="7.01576">
        <ele>447.15</ele>
        <time>2018-02-08T15:35:22Z</time>
      </trkpt>
      <trkpt lat="48.293" lon="7.01592">
        <ele>447.63</ele>
        <time>2018-02-08T15:35:37Z</time>
      </trkpt>
      <trkpt lat="48.29301" lon="7.01593">
        <ele>448.11</ele>
        <time>2018-02-08T15:35:38Z</time>
      </trkpt>
      <trkpt lat="48.29308" lon="7.01604">
        <ele>451.48</ele>
        <time>2018-02-08T15:35:49Z</time>
      </trkpt>
      <trkpt lat="48.29313" lon="7.01612">
        <ele>453.4</ele>
        <time>2018-02-08T15:35:56Z</time>
      </trkpt>
      <trkpt lat="48.29317" lon="7.01617">
        <ele>453.88</ele>
        <time>2018-02-08T15:36:00Z</time>
      </trkpt>
      <trkpt lat="48.2932" lon="7.01623">
        <ele>453.88</ele>
        <time>2018-02-08T15:36:06Z</time>
      </trkpt>
      <trkpt lat="48.29323" lon="7.01626">
        <ele>454.36</ele>
        <time>2018-02-08T15:36:09Z</time>
      </trkpt>
      <trkpt lat="48.29328" lon="7.0163">
        <ele>454.36</ele>
        <time>2018-02-08T15:36:14Z</time>
      </trkpt>
      <trkpt lat="48.29334" lon="7.01643">
        <ele>455.8</ele>
        <time>2018-02-08T15:36:24Z</time>
      </trkpt>
      <trkpt lat="48.29344" lon="7.01665">
        <ele>454.84</ele>
        <time>2018-02-08T15:36:43Z</time>
      </trkpt>
      <trkpt lat="48.29347" lon="7.01678">
        <ele>452.44</ele>
        <time>2018-02-08T15:36:57Z</time>
      </trkpt>
      <trkpt lat="48.29354" lon="7.01688">
        <ele>452.92</ele>
        <time>2018-02-08T15:37:13Z</time>
      </trkpt>
      <trkpt lat="48.2936" lon="7.01701">
        <ele>456.76</ele>
        <time>2018-02-08T15:37:23Z</time>
      </trkpt>
      <trkpt lat="48.29365" lon="7.0171">
        <ele>458.21</ele>
        <time>2018-02-08T15:37:30Z</time>
      </trkpt>
      <trkpt lat="48.29379" lon="7.01731">
        <ele>457.24</ele>
        <time>2018-02-08T15:37:49Z</time>
      </trkpt>
      <trkpt lat="48.29396" lon="7.01745">
        <ele>455.32</ele>
        <time>2018-02-08T15:38:06Z</time>
      </trkpt>
      <trkpt lat="48.29407" lon="7.01752">
        <ele>453.4</ele>
        <time>2018-02-08T15:38:16Z</time>
      </trkpt>
      <trkpt lat="48.29424" lon="7.01766">
        <ele>454.36</ele>
        <time>2018-02-08T15:38:33Z</time>
      </trkpt>
      <trkpt lat="48.29434" lon="7.01783">
        <ele>453.88</ele>
        <time>2018-02-08T15:38:49Z</time>
      </trkpt>
      <trkpt lat="48.29448" lon="7.01805">
        <ele>453.88</ele>
        <time>2018-02-08T15:39:07Z</time>
      </trkpt>
      <trkpt lat="48.29463" lon="7.01829">
        <ele>459.17</ele>
        <time>2018-02-08T15:39:24Z</time>
      </trkpt>
      <trkpt lat="48.29479" lon="7.01847">
        <ele>461.57</ele>
        <time>2018-02-08T15:39:41Z</time>
      </trkpt>
      <trkpt lat="48.29496" lon="7.01863">
        <ele>460.61</ele>
        <time>2018-02-08T15:40:00Z</time>
      </trkpt>
      <trkpt lat="48.29511" lon="7.01875">
        <ele>458.69</ele>
        <time>2018-02-08T15:40:16Z</time>
      </trkpt>
      <trkpt lat="48.29529" lon="7.01891">
        <ele>461.57</ele>
        <time>2018-02-08T15:40:35Z</time>
      </trkpt>
      <trkpt lat="48.29546" lon="7.01904">
        <ele>468.3</ele>
        <time>2018-02-08T15:40:51Z</time>
      </trkpt>
      <trkpt lat="48.29562" lon="7.01914">
        <ele>470.22</ele>
        <time>2018-02-08T15:41:06Z</time>
      </trkpt>
      <trkpt lat="48.29584" lon="7.0192">
        <ele>469.74</ele>
        <time>2018-02-08T15:41:26Z</time>
      </trkpt>
      <trkpt lat="48.29597" lon="7.01926">
        <ele>469.74</ele>
        <time>2018-02-08T15:41:41Z</time>
      </trkpt>
      <trkpt lat="48.29604" lon="7.01928">
        <ele>469.74</ele>
        <time>2018-02-08T15:41:48Z</time>
      </trkpt>
      <trkpt lat="48.29612" lon="7.01929">
        <ele>469.74</ele>
        <time>2018-02-08T15:41:54Z</time>
      </trkpt>
      <trkpt lat="48.29616" lon="7.0193">
        <ele>470.22</ele>
        <time>2018-02-08T15:41:59Z</time>
      </trkpt>
      <trkpt lat="48.29635" lon="7.01927">
        <ele>468.78</ele>
        <time>2018-02-08T15:42:17Z</time>
      </trkpt>
      <trkpt lat="48.29638" lon="7.01926">
        <ele>469.26</ele>
        <time>2018-02-08T15:42:19Z</time>
      </trkpt>
      <trkpt lat="48.29654" lon="7.01917">
        <ele>472.63</ele>
        <time>2018-02-08T15:42:37Z</time>
      </trkpt>
      <trkpt lat="48.29667" lon="7.01905">
        <ele>472.14</ele>
        <time>2018-02-08T15:42:52Z</time>
      </trkpt>
      <trkpt lat="48.29679" lon="7.01893">
        <ele>475.03</ele>
        <time>2018-02-08T15:43:07Z</time>
      </trkpt>
      <trkpt lat="48.29691" lon="7.01877">
        <ele>476.47</ele>
        <time>2018-02-08T15:43:22Z</time>
      </trkpt>
      <trkpt lat="48.29692" lon="7.01876">
        <ele>476.47</ele>
        <time>2018-02-08T15:43:24Z</time>
      </trkpt>
      <trkpt lat="48.29704" lon="7.01863">
        <ele>476.47</ele>
        <time>2018-02-08T15:43:39Z</time>
      </trkpt>
      <trkpt lat="48.29718" lon="7.01851">
        <ele>476.95</ele>
        <time>2018-02-08T15:43:54Z</time>
      </trkpt>
      <trkpt lat="48.29732" lon="7.01844">
        <ele>480.8</ele>
        <time>2018-02-08T15:44:09Z</time>
      </trkpt>
      <trkpt lat="48.29745" lon="7.01837">
        <ele>484.64</ele>
        <time>2018-02-08T15:44:24Z</time>
      </trkpt>
      <trkpt lat="48.2976" lon="7.01838">
        <ele>484.64</ele>
        <time>2018-02-08T15:44:42Z</time>
      </trkpt>
      <trkpt lat="48.29779" lon="7.01837">
        <ele>488.01</ele>
        <time>2018-02-08T15:44:58Z</time>
      </trkpt>
      <trkpt lat="48.29795" lon="7.01829">
        <ele>487.53</ele>
        <time>2018-02-08T15:45:15Z</time>
      </trkpt>
      <trkpt lat="48.29802" lon="7.01822">
        <ele>488.49</ele>
        <time>2018-02-08T15:45:23Z</time>
      </trkpt>
      <trkpt lat="48.29807" lon="7.01817">
        <ele>488.97</ele>
        <time>2018-02-08T15:45:28Z</time>
      </trkpt>
      <trkpt lat="48.29819" lon="7.01805">
        <ele>488.49</ele>
        <time>2018-02-08T15:45:43Z</time>
      </trkpt>
      <trkpt lat="48.29833" lon="7.01785">
        <ele>490.41</ele>
        <time>2018-02-08T15:46:00Z</time>
      </trkpt>
      <trkpt lat="48.29845" lon="7.01772">
        <ele>491.85</ele>
        <time>2018-02-08T15:46:15Z</time>
      </trkpt>
      <trkpt lat="48.29852" lon="7.01765">
        <ele>493.77</ele>
        <time>2018-02-08T15:46:23Z</time>
      </trkpt>
      <trkpt lat="48.29866" lon="7.0175">
        <ele>497.14</ele>
        <time>2018-02-08T15:46:41Z</time>
      </trkpt>
      <trkpt lat="48.29884" lon="7.01737">
        <ele>494.26</ele>
        <time>2018-02-08T15:46:59Z</time>
      </trkpt>
      <trkpt lat="48.29897" lon="7.01735">
        <ele>492.33</ele>
        <time>2018-02-08T15:47:11Z</time>
      </trkpt>
      <trkpt lat="48.29907" lon="7.01735">
        <ele>489.45</ele>
        <time>2018-02-08T15:47:21Z</time>
      </trkpt>
      <trkpt lat="48.29922" lon="7.01705">
        <ele>488.49</ele>
        <time>2018-02-08T15:47:37Z</time>
      </trkpt>
      <trkpt lat="48.29926" lon="7.0168">
        <ele>487.53</ele>
        <time>2018-02-08T15:47:54Z</time>
      </trkpt>
      <trkpt lat="48.29921" lon="7.01647">
        <ele>488.49</ele>
        <time>2018-02-08T15:48:10Z</time>
      </trkpt>
      <trkpt lat="48.29913" lon="7.01626">
        <ele>488.97</ele>
        <time>2018-02-08T15:48:25Z</time>
      </trkpt>
      <trkpt lat="48.2991" lon="7.016">
        <ele>492.81</ele>
        <time>2018-02-08T15:48:43Z</time>
      </trkpt>
      <trkpt lat="48.29921" lon="7.01581">
        <ele>494.74</ele>
        <time>2018-02-08T15:49:01Z</time>
      </trkpt>
      <trkpt lat="48.29938" lon="7.01574">
        <ele>497.62</ele>
        <time>2018-02-08T15:49:18Z</time>
      </trkpt>
      <trkpt lat="48.29949" lon="7.01572">
        <ele>497.62</ele>
        <time>2018-02-08T15:49:28Z</time>
      </trkpt>
      <trkpt lat="48.29965" lon="7.01579">
        <ele>495.7</ele>
        <time>2018-02-08T15:49:43Z</time>
      </trkpt>
      <trkpt lat="48.29985" lon="7.01585">
        <ele>495.22</ele>
        <time>2018-02-08T15:50:00Z</time>
      </trkpt>
      <trkpt lat="48.30003" lon="7.01594">
        <ele>496.18</ele>
        <time>2018-02-08T15:50:17Z</time>
      </trkpt>
      <trkpt lat="48.30023" lon="7.01602">
        <ele>498.58</ele>
        <time>2018-02-08T15:50:35Z</time>
      </trkpt>
      <trkpt lat="48.30039" lon="7.01608">
        <ele>498.58</ele>
        <time>2018-02-08T15:50:52Z</time>
      </trkpt>
      <trkpt lat="48.30053" lon="7.01622">
        <ele>496.18</ele>
        <time>2018-02-08T15:51:08Z</time>
      </trkpt>
      <trkpt lat="48.30068" lon="7.01648">
        <ele>492.81</ele>
        <time>2018-02-08T15:51:28Z</time>
      </trkpt>
      <trkpt lat="48.30079" lon="7.01668">
        <ele>488.01</ele>
        <time>2018-02-08T15:51:45Z</time>
      </trkpt>
      <trkpt lat="48.30093" lon="7.01693">
        <ele>490.89</ele>
        <time>2018-02-08T15:52:02Z</time>
      </trkpt>
      <trkpt lat="48.30103" lon="7.01713">
        <ele>488.97</ele>
        <time>2018-02-08T15:52:17Z</time>
      </trkpt>
      <trkpt lat="48.30115" lon="7.01729">
        <ele>485.12</ele>
        <time>2018-02-08T15:52:32Z</time>
      </trkpt>
      <trkpt lat="48.30122" lon="7.0174">
        <ele>483.2</ele>
        <time>2018-02-08T15:52:42Z</time>
      </trkpt>
      <trkpt lat="48.30126" lon="7.01745">
        <ele>483.68</ele>
        <time>2018-02-08T15:52:46Z</time>
      </trkpt>
      <trkpt lat="48.30153" lon="7.01745">
        <ele>486.08</ele>
        <time>2018-02-08T15:53:12Z</time>
      </trkpt>
      <trkpt lat="48.30144" lon="7.01715">
        <ele>488.01</ele>
        <time>2018-02-08T15:53:32Z</time>
      </trkpt>
      <trkpt lat="48.30136" lon="7.01682">
        <ele>489.93</ele>
        <time>2018-02-08T15:53:51Z</time>
      </trkpt>
      <trkpt lat="48.30137" lon="7.01647">
        <ele>489.93</ele>
        <time>2018-02-08T15:54:11Z</time>
      </trkpt>
      <trkpt lat="48.30143" lon="7.01623">
        <ele>489.45</ele>
        <time>2018-02-08T15:54:27Z</time>
      </trkpt>
      <trkpt lat="48.30149" lon="7.01618">
        <ele>488.97</ele>
        <time>2018-02-08T15:54:49Z</time>
      </trkpt>
      <trkpt lat="48.30149" lon="7.01617">
        <ele>492.33</ele>
        <time>2018-02-08T15:55:16Z</time>
      </trkpt>
      <trkpt lat="48.30146" lon="7.01621">
        <ele>495.7</ele>
        <time>2018-02-08T15:55:44Z</time>
      </trkpt>
      <trkpt lat="48.30145" lon="7.01619">
        <ele>496.66</ele>
        <time>2018-02-08T15:56:02Z</time>
      </trkpt>
      <trkpt lat="48.30148" lon="7.01621">
        <ele>496.18</ele>
        <time>2018-02-08T15:56:31Z</time>
      </trkpt>
      <trkpt lat="48.30153" lon="7.01619">
        <ele>500.02</ele>
        <time>2018-02-08T15:56:55Z</time>
      </trkpt>
      <trkpt lat="48.30152" lon="7.01616">
        <ele>500.02</ele>
        <time>2018-02-08T15:57:21Z</time>
      </trkpt>
      <trkpt lat="48.30163" lon="7.01604">
        <ele>496.66</ele>
        <time>2018-02-08T15:57:38Z</time>
      </trkpt>
      <trkpt lat="48.30179" lon="7.01601">
        <ele>489.93</ele>
        <time>2018-02-08T15:57:55Z</time>
      </trkpt>
      <trkpt lat="48.30197" lon="7.01599">
        <ele>483.68</ele>
        <time>2018-02-08T15:58:11Z</time>
      </trkpt>
      <trkpt lat="48.30219" lon="7.0159">
        <ele>482.24</ele>
        <time>2018-02-08T15:58:27Z</time>
      </trkpt>
      <trkpt lat="48.30231" lon="7.01587">
        <ele>483.2</ele>
        <time>2018-02-08T15:58:39Z</time>
      </trkpt>
      <trkpt lat="48.30247" lon="7.01593">
        <ele>484.16</ele>
        <time>2018-02-08T15:58:54Z</time>
      </trkpt>
      <trkpt lat="48.30264" lon="7.01597">
        <ele>489.93</ele>
        <time>2018-02-08T15:59:09Z</time>
      </trkpt>
      <trkpt lat="48.30272" lon="7.016">
        <ele>490.89</ele>
        <time>2018-02-08T15:59:15Z</time>
      </trkpt>
      <trkpt lat="48.30288" lon="7.01608">
        <ele>492.33</ele>
        <time>2018-02-08T15:59:29Z</time>
      </trkpt>
      <trkpt lat="48.30306" lon="7.01622">
        <ele>492.33</ele>
        <time>2018-02-08T15:59:48Z</time>
      </trkpt>
      <trkpt lat="48.30317" lon="7.01634">
        <ele>491.37</ele>
        <time>2018-02-08T16:00:00Z</time>
      </trkpt>
      <trkpt lat="48.30326" lon="7.01644">
        <ele>491.37</ele>
        <time>2018-02-08T16:00:11Z</time>
      </trkpt>
      <trkpt lat="48.30331" lon="7.01651">
        <ele>491.85</ele>
        <time>2018-02-08T16:00:18Z</time>
      </trkpt>
      <trkpt lat="48.30343" lon="7.01668">
        <ele>493.77</ele>
        <time>2018-02-08T16:00:32Z</time>
      </trkpt>
      <trkpt lat="48.30361" lon="7.01674">
        <ele>497.14</ele>
        <time>2018-02-08T16:00:48Z</time>
      </trkpt>
      <trkpt lat="48.30367" lon="7.01677">
        <ele>497.62</ele>
        <time>2018-02-08T16:00:54Z</time>
      </trkpt>
      <trkpt lat="48.30373" lon="7.0168">
        <ele>498.1</ele>
        <time>2018-02-08T16:01:01Z</time>
      </trkpt>
      <trkpt lat="48.30389" lon="7.01684">
        <ele>495.7</ele>
        <time>2018-02-08T16:01:15Z</time>
      </trkpt>
      <trkpt lat="48.30406" lon="7.01682">
        <ele>493.77</ele>
        <time>2018-02-08T16:01:30Z</time>
      </trkpt>
      <trkpt lat="48.3042" lon="7.01675">
        <ele>496.66</ele>
        <time>2018-02-08T16:01:44Z</time>
      </trkpt>
      <trkpt lat="48.30432" lon="7.01669">
        <ele>498.58</ele>
        <time>2018-02-08T16:01:58Z</time>
      </trkpt>
      <trkpt lat="48.30447" lon="7.01664">
        <ele>500.02</ele>
        <time>2018-02-08T16:02:10Z</time>
      </trkpt>
      <trkpt lat="48.30463" lon="7.01662">
        <ele>501.46</ele>
        <time>2018-02-08T16:02:24Z</time>
      </trkpt>
      <trkpt lat="48.30479" lon="7.01657">
        <ele>501.46</ele>
        <time>2018-02-08T16:02:40Z</time>
      </trkpt>
      <trkpt lat="48.30498" lon="7.01652">
        <ele>503.39</ele>
        <time>2018-02-08T16:02:54Z</time>
      </trkpt>
      <trkpt lat="48.30505" lon="7.01651">
        <ele>504.83</ele>
        <time>2018-02-08T16:02:59Z</time>
      </trkpt>
      <trkpt lat="48.30517" lon="7.01648">
        <ele>511.08</ele>
        <time>2018-02-08T16:03:14Z</time>
      </trkpt>
      <trkpt lat="48.30517" lon="7.01647">
        <ele>511.56</ele>
        <time>2018-02-08T16:03:15Z</time>
      </trkpt>
      <trkpt lat="48.30527" lon="7.01637">
        <ele>522.61</ele>
        <time>2018-02-08T16:03:32Z</time>
      </trkpt>
      <trkpt lat="48.30531" lon="7.0161">
        <ele>521.17</ele>
        <time>2018-02-08T16:03:48Z</time>
      </trkpt>
      <trkpt lat="48.30522" lon="7.01591">
        <ele>510.6</ele>
        <time>2018-02-08T16:04:07Z</time>
      </trkpt>
      <trkpt lat="48.30511" lon="7.01579">
        <ele>506.75</ele>
        <time>2018-02-08T16:04:20Z</time>
      </trkpt>
      <trkpt lat="48.30503" lon="7.01574">
        <ele>512.04</ele>
        <time>2018-02-08T16:04:26Z</time>
      </trkpt>
      <trkpt lat="48.3049" lon="7.01564">
        <ele>507.23</ele>
        <time>2018-02-08T16:04:40Z</time>
      </trkpt>
      <trkpt lat="48.30483" lon="7.01559">
        <ele>505.79</ele>
        <time>2018-02-08T16:04:47Z</time>
      </trkpt>
      <trkpt lat="48.30476" lon="7.01555">
        <ele>506.27</ele>
        <time>2018-02-08T16:04:52Z</time>
      </trkpt>
      <trkpt lat="48.30461" lon="7.01549">
        <ele>510.12</ele>
        <time>2018-02-08T16:05:04Z</time>
      </trkpt>
      <trkpt lat="48.30443" lon="7.01548">
        <ele>511.56</ele>
        <time>2018-02-08T16:05:19Z</time>
      </trkpt>
      <trkpt lat="48.30423" lon="7.01547">
        <ele>510.12</ele>
        <time>2018-02-08T16:05:36Z</time>
      </trkpt>
      <trkpt lat="48.3041" lon="7.01547">
        <ele>509.16</ele>
        <time>2018-02-08T16:05:47Z</time>
      </trkpt>
      <trkpt lat="48.30394" lon="7.01548">
        <ele>507.23</ele>
        <time>2018-02-08T16:06:02Z</time>
      </trkpt>
      <trkpt lat="48.30389" lon="7.01551">
        <ele>506.75</ele>
        <time>2018-02-08T16:06:06Z</time>
      </trkpt>
      <trkpt lat="48.30376" lon="7.01545">
        <ele>501.95</ele>
        <time>2018-02-08T16:06:19Z</time>
      </trkpt>
      <trkpt lat="48.30372" lon="7.01541">
        <ele>499.54</ele>
        <time>2018-02-08T16:06:26Z</time>
      </trkpt>
      <trkpt lat="48.30369" lon="7.01541">
        <ele>499.54</ele>
        <time>2018-02-08T16:06:28Z</time>
      </trkpt>
      <trkpt lat="48.30355" lon="7.01532">
        <ele>500.02</ele>
        <time>2018-02-08T16:06:40Z</time>
      </trkpt>
      <trkpt lat="48.30344" lon="7.01526">
        <ele>500.98</ele>
        <time>2018-02-08T16:06:50Z</time>
      </trkpt>
      <trkpt lat="48.30331" lon="7.01511">
        <ele>501.46</ele>
        <time>2018-02-08T16:07:03Z</time>
      </trkpt>
      <trkpt lat="48.30322" lon="7.01503">
        <ele>496.66</ele>
        <time>2018-02-08T16:07:15Z</time>
      </trkpt>
      <trkpt lat="48.30316" lon="7.01494">
        <ele>490.41</ele>
        <time>2018-02-08T16:07:26Z</time>
      </trkpt>
      <trkpt lat="48.30306" lon="7.01487">
        <ele>488.97</ele>
        <time>2018-02-08T16:07:37Z</time>
      </trkpt>
      <trkpt lat="48.30299" lon="7.01482">
        <ele>488.01</ele>
        <time>2018-02-08T16:07:44Z</time>
      </trkpt>
      <trkpt lat="48.30279" lon="7.01471">
        <ele>489.93</ele>
        <time>2018-02-08T16:08:00Z</time>
      </trkpt>
      <trkpt lat="48.30261" lon="7.01459">
        <ele>490.41</ele>
        <time>2018-02-08T16:08:14Z</time>
      </trkpt>
      <trkpt lat="48.30246" lon="7.01452">
        <ele>488.97</ele>
        <time>2018-02-08T16:08:26Z</time>
      </trkpt>
      <trkpt lat="48.30228" lon="7.01454">
        <ele>489.93</ele>
        <time>2018-02-08T16:08:40Z</time>
      </trkpt>
      <trkpt lat="48.30218" lon="7.0145">
        <ele>487.53</ele>
        <time>2018-02-08T16:08:51Z</time>
      </trkpt>
      <trkpt lat="48.30208" lon="7.01442">
        <ele>485.12</ele>
        <time>2018-02-08T16:09:03Z</time>
      </trkpt>
      <trkpt lat="48.30194" lon="7.01426">
        <ele>485.12</ele>
        <time>2018-02-08T16:09:16Z</time>
      </trkpt>
      <trkpt lat="48.30191" lon="7.01421">
        <ele>485.12</ele>
        <time>2018-02-08T16:09:19Z</time>
      </trkpt>
      <trkpt lat="48.30182" lon="7.01409">
        <ele>486.56</ele>
        <time>2018-02-08T16:09:28Z</time>
      </trkpt>
      <trkpt lat="48.30166" lon="7.01383">
        <ele>488.01</ele>
        <time>2018-02-08T16:09:44Z</time>
      </trkpt>
      <trkpt lat="48.30151" lon="7.01368">
        <ele>488.01</ele>
        <time>2018-02-08T16:09:58Z</time>
      </trkpt>
      <trkpt lat="48.30137" lon="7.01358">
        <ele>484.16</ele>
        <time>2018-02-08T16:10:12Z</time>
      </trkpt>
      <trkpt lat="48.30124" lon="7.01352">
        <ele>483.2</ele>
        <time>2018-02-08T16:10:23Z</time>
      </trkpt>
      <trkpt lat="48.30107" lon="7.01343">
        <ele>485.6</ele>
        <time>2018-02-08T16:10:38Z</time>
      </trkpt>
      <trkpt lat="48.30092" lon="7.0133">
        <ele>486.08</ele>
        <time>2018-02-08T16:10:53Z</time>
      </trkpt>
      <trkpt lat="48.30086" lon="7.01323">
        <ele>485.12</ele>
        <time>2018-02-08T16:10:59Z</time>
      </trkpt>
      <trkpt lat="48.30074" lon="7.01309">
        <ele>483.68</ele>
        <time>2018-02-08T16:11:12Z</time>
      </trkpt>
      <trkpt lat="48.30061" lon="7.01292">
        <ele>478.87</ele>
        <time>2018-02-08T16:11:27Z</time>
      </trkpt>
      <trkpt lat="48.30046" lon="7.01277">
        <ele>479.84</ele>
        <time>2018-02-08T16:11:41Z</time>
      </trkpt>
      <trkpt lat="48.30046" lon="7.01275">
        <ele>479.35</ele>
        <time>2018-02-08T16:11:42Z</time>
      </trkpt>
      <trkpt lat="48.30042" lon="7.01272">
        <ele>479.35</ele>
        <time>2018-02-08T16:11:45Z</time>
      </trkpt>
      <trkpt lat="48.30034" lon="7.01265">
        <ele>479.35</ele>
        <time>2018-02-08T16:11:53Z</time>
      </trkpt>
      <trkpt lat="48.30022" lon="7.01254">
        <ele>478.39</ele>
        <time>2018-02-08T16:12:05Z</time>
      </trkpt>
      <trkpt lat="48.3001" lon="7.01233">
        <ele>478.39</ele>
        <time>2018-02-08T16:12:20Z</time>
      </trkpt>
      <trkpt lat="48.30002" lon="7.01223">
        <ele>475.99</ele>
        <time>2018-02-08T16:12:29Z</time>
      </trkpt>
      <trkpt lat="48.29994" lon="7.01194">
        <ele>472.63</ele>
        <time>2018-02-08T16:12:47Z</time>
      </trkpt>
      <trkpt lat="48.29988" lon="7.01171">
        <ele>471.66</ele>
        <time>2018-02-08T16:13:00Z</time>
      </trkpt>
      <trkpt lat="48.29982" lon="7.01153">
        <ele>471.66</ele>
        <time>2018-02-08T16:13:12Z</time>
      </trkpt>
      <trkpt lat="48.2998" lon="7.0115">
        <ele>471.66</ele>
        <time>2018-02-08T16:13:14Z</time>
      </trkpt>
      <trkpt lat="48.29965" lon="7.01126">
        <ele>472.14</ele>
        <time>2018-02-08T16:13:30Z</time>
      </trkpt>
      <trkpt lat="48.29949" lon="7.01113">
        <ele>471.66</ele>
        <time>2018-02-08T16:13:44Z</time>
      </trkpt>
      <trkpt lat="48.29945" lon="7.01109">
        <ele>471.66</ele>
        <time>2018-02-08T16:13:48Z</time>
      </trkpt>
      <trkpt lat="48.29929" lon="7.01084">
        <ele>473.59</ele>
        <time>2018-02-08T16:14:07Z</time>
      </trkpt>
      <trkpt lat="48.29921" lon="7.01069">
        <ele>473.59</ele>
        <time>2018-02-08T16:14:19Z</time>
      </trkpt>
      <trkpt lat="48.29919" lon="7.01062">
        <ele>474.07</ele>
        <time>2018-02-08T16:14:23Z</time>
      </trkpt>
      <trkpt lat="48.29912" lon="7.01051">
        <ele>473.59</ele>
        <time>2018-02-08T16:14:36Z</time>
      </trkpt>
      <trkpt lat="48.29901" lon="7.01033">
        <ele>473.11</ele>
        <time>2018-02-08T16:14:51Z</time>
      </trkpt>
      <trkpt lat="48.29896" lon="7.01021">
        <ele>473.11</ele>
        <time>2018-02-08T16:15:04Z</time>
      </trkpt>
      <trkpt lat="48.29881" lon="7.00997">
        <ele>472.63</ele>
        <time>2018-02-08T16:15:22Z</time>
      </trkpt>
      <trkpt lat="48.29876" lon="7.00986">
        <ele>476.47</ele>
        <time>2018-02-08T16:15:36Z</time>
      </trkpt>
      <trkpt lat="48.29869" lon="7.00957">
        <ele>474.55</ele>
        <time>2018-02-08T16:15:53Z</time>
      </trkpt>
      <trkpt lat="48.29868" lon="7.00951">
        <ele>475.51</ele>
        <time>2018-02-08T16:15:56Z</time>
      </trkpt>
      <trkpt lat="48.2986" lon="7.00922">
        <ele>478.39</ele>
        <time>2018-02-08T16:16:13Z</time>
      </trkpt>
      <trkpt lat="48.29854" lon="7.00899">
        <ele>478.39</ele>
        <time>2018-02-08T16:16:25Z</time>
      </trkpt>
      <trkpt lat="48.29852" lon="7.00878">
        <ele>476.95</ele>
        <time>2018-02-08T16:16:38Z</time>
      </trkpt>
      <trkpt lat="48.2985" lon="7.0087">
        <ele>476.47</ele>
        <time>2018-02-08T16:16:43Z</time>
      </trkpt>
      <trkpt lat="48.2985" lon="7.0087">
        <ele>475.99</ele>
        <time>2018-02-08T16:16:55Z</time>
      </trkpt>
      <trkpt lat="48.29847" lon="7.00864">
        <ele>475.99</ele>
        <time>2018-02-08T16:17:00Z</time>
      </trkpt>
      <trkpt lat="48.29833" lon="7.00846">
        <ele>475.03</ele>
        <time>2018-02-08T16:17:16Z</time>
      </trkpt>
      <trkpt lat="48.2982" lon="7.00822">
        <ele>473.59</ele>
        <time>2018-02-08T16:17:31Z</time>
      </trkpt>
      <trkpt lat="48.29813" lon="7.00797">
        <ele>471.66</ele>
        <time>2018-02-08T16:17:45Z</time>
      </trkpt>
      <trkpt lat="48.29807" lon="7.00768">
        <ele>470.7</ele>
        <time>2018-02-08T16:17:59Z</time>
      </trkpt>
      <trkpt lat="48.29793" lon="7.00743">
        <ele>471.66</ele>
        <time>2018-02-08T16:18:16Z</time>
      </trkpt>
      <trkpt lat="48.29778" lon="7.0073">
        <ele>472.14</ele>
        <time>2018-02-08T16:18:30Z</time>
      </trkpt>
      <trkpt lat="48.29758" lon="7.00715">
        <ele>472.14</ele>
        <time>2018-02-08T16:18:46Z</time>
      </trkpt>
      <trkpt lat="48.29742" lon="7.00696">
        <ele>471.18</ele>
        <time>2018-02-08T16:19:02Z</time>
      </trkpt>
      <trkpt lat="48.29747" lon="7.00674">
        <ele>470.22</ele>
        <time>2018-02-08T16:19:15Z</time>
      </trkpt>
      <trkpt lat="48.2976" lon="7.00663">
        <ele>470.22</ele>
        <time>2018-02-08T16:19:30Z</time>
      </trkpt>
      <trkpt lat="48.29773" lon="7.00649">
        <ele>470.7</ele>
        <time>2018-02-08T16:19:44Z</time>
      </trkpt>
      <trkpt lat="48.29778" lon="7.0064">
        <ele>472.63</ele>
        <time>2018-02-08T16:19:52Z</time>
      </trkpt>
      <trkpt lat="48.29782" lon="7.00635">
        <ele>474.55</ele>
        <time>2018-02-08T16:19:58Z</time>
      </trkpt>
      <trkpt lat="48.29794" lon="7.00627">
        <ele>475.03</ele>
        <time>2018-02-08T16:20:10Z</time>
      </trkpt>
      <trkpt lat="48.29804" lon="7.00612">
        <ele>478.39</ele>
        <time>2018-02-08T16:20:26Z</time>
      </trkpt>
      <trkpt lat="48.29805" lon="7.00608">
        <ele>478.87</ele>
        <time>2018-02-08T16:20:29Z</time>
      </trkpt>
      <trkpt lat="48.29805" lon="7.00605">
        <ele>479.84</ele>
        <time>2018-02-08T16:20:32Z</time>
      </trkpt>
      <trkpt lat="48.29804" lon="7.00603">
        <ele>479.84</ele>
        <time>2018-02-08T16:20:34Z</time>
      </trkpt>
      <trkpt lat="48.29797" lon="7.00595">
        <ele>480.32</ele>
        <time>2018-02-08T16:20:43Z</time>
      </trkpt>
      <trkpt lat="48.29782" lon="7.00586">
        <ele>480.32</ele>
        <time>2018-02-08T16:20:59Z</time>
      </trkpt>
      <trkpt lat="48.2978" lon="7.00585">
        <ele>480.32</ele>
        <time>2018-02-08T16:21:01Z</time>
      </trkpt>
      <trkpt lat="48.29777" lon="7.00582">
        <ele>480.32</ele>
        <time>2018-02-08T16:21:05Z</time>
      </trkpt>
      <trkpt lat="48.29771" lon="7.00574">
        <ele>481.28</ele>
        <time>2018-02-08T16:21:17Z</time>
      </trkpt>
      <trkpt lat="48.29773" lon="7.00577">
        <ele>483.2</ele>
        <time>2018-02-08T16:21:31Z</time>
      </trkpt>
      <trkpt lat="48.29773" lon="7.00577">
        <ele>483.2</ele>
        <time>2018-02-08T16:21:35Z</time>
      </trkpt>
      <trkpt lat="48.29747" lon="7.00568">
        <ele>480.8</ele>
        <time>2018-02-08T16:21:52Z</time>
      </trkpt>
      <trkpt lat="48.29721" lon="7.00554">
        <ele>482.72</ele>
        <time>2018-02-08T16:22:11Z</time>
      </trkpt>
      <trkpt lat="48.29708" lon="7.00534">
        <ele>482.24</ele>
        <time>2018-02-08T16:22:25Z</time>
      </trkpt>
      <trkpt lat="48.29707" lon="7.00529">
        <ele>482.24</ele>
        <time>2018-02-08T16:22:28Z</time>
      </trkpt>
      <trkpt lat="48.29692" lon="7.00516">
        <ele>483.68</ele>
        <time>2018-02-08T16:22:43Z</time>
      </trkpt>
      <trkpt lat="48.29677" lon="7.00502">
        <ele>482.72</ele>
        <time>2018-02-08T16:22:59Z</time>
      </trkpt>
      <trkpt lat="48.29663" lon="7.00487">
        <ele>483.2</ele>
        <time>2018-02-08T16:23:15Z</time>
      </trkpt>
      <trkpt lat="48.29649" lon="7.0047">
        <ele>483.68</ele>
        <time>2018-02-08T16:23:32Z</time>
      </trkpt>
      <trkpt lat="48.29634" lon="7.0045">
        <ele>484.64</ele>
        <time>2018-02-08T16:23:49Z</time>
      </trkpt>
      <trkpt lat="48.29624" lon="7.00436">
        <ele>484.64</ele>
        <time>2018-02-08T16:24:03Z</time>
      </trkpt>
      <trkpt lat="48.29609" lon="7.00413">
        <ele>484.64</ele>
        <time>2018-02-08T16:24:22Z</time>
      </trkpt>
      <trkpt lat="48.29595" lon="7.00392">
        <ele>485.12</ele>
        <time>2018-02-08T16:24:40Z</time>
      </trkpt>
      <trkpt lat="48.29585" lon="7.00374">
        <ele>483.2</ele>
        <time>2018-02-08T16:24:56Z</time>
      </trkpt>
      <trkpt lat="48.29592" lon="7.00362">
        <ele>484.16</ele>
        <time>2018-02-08T16:25:07Z</time>
      </trkpt>
      <trkpt lat="48.296" lon="7.00355">
        <ele>486.56</ele>
        <time>2018-02-08T16:25:21Z</time>
      </trkpt>
      <trkpt lat="48.29608" lon="7.00361">
        <ele>487.53</ele>
        <time>2018-02-08T16:25:31Z</time>
      </trkpt>
      <trkpt lat="48.29619" lon="7.00368">
        <ele>488.49</ele>
        <time>2018-02-08T16:25:44Z</time>
      </trkpt>
      <trkpt lat="48.29622" lon="7.0037">
        <ele>488.97</ele>
        <time>2018-02-08T16:25:47Z</time>
      </trkpt>
      <trkpt lat="48.29638" lon="7.00379">
        <ele>490.41</ele>
        <time>2018-02-08T16:26:01Z</time>
      </trkpt>
      <trkpt lat="48.29654" lon="7.00388">
        <ele>490.89</ele>
        <time>2018-02-08T16:26:17Z</time>
      </trkpt>
      <trkpt lat="48.29668" lon="7.00393">
        <ele>492.33</ele>
        <time>2018-02-08T16:26:31Z</time>
      </trkpt>
      <trkpt lat="48.29673" lon="7.00394">
        <ele>491.37</ele>
        <time>2018-02-08T16:26:37Z</time>
      </trkpt>
      <trkpt lat="48.29676" lon="7.00395">
        <ele>490.89</ele>
        <time>2018-02-08T16:26:40Z</time>
      </trkpt>
      <trkpt lat="48.29699" lon="7.00404">
        <ele>494.74</ele>
        <time>2018-02-08T16:26:56Z</time>
      </trkpt>
      <trkpt lat="48.29713" lon="7.00407">
        <ele>495.7</ele>
        <time>2018-02-08T16:27:10Z</time>
      </trkpt>
      <trkpt lat="48.29729" lon="7.00408">
        <ele>497.62</ele>
        <time>2018-02-08T16:27:21Z</time>
      </trkpt>
      <trkpt lat="48.29753" lon="7.00405">
        <ele>504.35</ele>
        <time>2018-02-08T16:27:37Z</time>
      </trkpt>
      <trkpt lat="48.29761" lon="7.00407">
        <ele>505.31</ele>
        <time>2018-02-08T16:27:43Z</time>
      </trkpt>
      <trkpt lat="48.2978" lon="7.00411">
        <ele>506.75</ele>
        <time>2018-02-08T16:27:57Z</time>
      </trkpt>
      <trkpt lat="48.29795" lon="7.00413">
        <ele>506.75</ele>
        <time>2018-02-08T16:28:11Z</time>
      </trkpt>
      <trkpt lat="48.29806" lon="7.00409">
        <ele>507.71</ele>
        <time>2018-02-08T16:28:24Z</time>
      </trkpt>
      <trkpt lat="48.29808" lon="7.0041">
        <ele>510.12</ele>
        <time>2018-02-08T16:28:44Z</time>
      </trkpt>
    </trkseg>
  </trk>
</gpx>